<?xml version="1.0" encoding="UTF-8" standalone="no" ?>
<gpx xmlns="http://www.topografix.com/GPX/1/1" xmlns:xsi="http://www.w3.org/2001/XMLSchema-instance" xsi:schemaLocation="http://www.topografix.com/GPX/1/1 http://www.topografix.com/GPX/1/1/gpx.xsd" version="1.1" creator="VisuGPX - https://www.visugpx.com">
  <metadata>
    <name>ski de fond st françois</name>
    <desc><![CDATA[une rouge et une bleu]]></desc>
  </metadata>
  <trk>
    <name><![CDATA[ski de fond feclaz]]></name>
    <desc><![CDATA[une rouge et une bleue]]></desc>
    <trkseg>
      <trkpt lat="45.6786" lon="6.0329">
        <ele>1313.4000244141</ele>
        <time>2014-02-08T10:17:52.000Z</time>
      </trkpt>
      <trkpt lat="45.67861" lon="6.03291">
        <ele>1313.5999755859</ele>
        <time>2014-02-08T10:17:53.000Z</time>
      </trkpt>
      <trkpt lat="45.67871" lon="6.03293">
        <ele>1314.1999511719</ele>
        <time>2014-02-08T10:17:56.000Z</time>
      </trkpt>
      <trkpt lat="45.67882" lon="6.03296">
        <ele>1314.5999755859</ele>
        <time>2014-02-08T10:17:59.000Z</time>
      </trkpt>
      <trkpt lat="45.67898" lon="6.03302">
        <ele>1315.1999511719</ele>
        <time>2014-02-08T10:18:03.000Z</time>
      </trkpt>
      <trkpt lat="45.67919" lon="6.03306">
        <ele>1315.8000488281</ele>
        <time>2014-02-08T10:18:09.000Z</time>
      </trkpt>
      <trkpt lat="45.67934" lon="6.03308">
        <ele>1315</ele>
        <time>2014-02-08T10:18:14.000Z</time>
      </trkpt>
      <trkpt lat="45.67951" lon="6.03317">
        <ele>1313.1999511719</ele>
        <time>2014-02-08T10:18:19.000Z</time>
      </trkpt>
      <trkpt lat="45.67968" lon="6.03338">
        <ele>1309.8000488281</ele>
        <time>2014-02-08T10:18:23.000Z</time>
      </trkpt>
      <trkpt lat="45.67983" lon="6.03356">
        <ele>1308.5999755859</ele>
        <time>2014-02-08T10:18:26.000Z</time>
      </trkpt>
      <trkpt lat="45.68005" lon="6.03375">
        <ele>1306.4000244141</ele>
        <time>2014-02-08T10:18:30.000Z</time>
      </trkpt>
      <trkpt lat="45.68043" lon="6.0339">
        <ele>1301.5999755859</ele>
        <time>2014-02-08T10:18:36.000Z</time>
      </trkpt>
      <trkpt lat="45.68077" lon="6.03384">
        <ele>1298</ele>
        <time>2014-02-08T10:18:41.000Z</time>
      </trkpt>
      <trkpt lat="45.68102" lon="6.03373">
        <ele>1298</ele>
        <time>2014-02-08T10:18:45.000Z</time>
      </trkpt>
      <trkpt lat="45.68129" lon="6.03373">
        <ele>1297.5999755859</ele>
        <time>2014-02-08T10:18:49.000Z</time>
      </trkpt>
      <trkpt lat="45.6815" lon="6.03394">
        <ele>1295.8000488281</ele>
        <time>2014-02-08T10:18:53.000Z</time>
      </trkpt>
      <trkpt lat="45.68159" lon="6.03438">
        <ele>1293.4000244141</ele>
        <time>2014-02-08T10:18:57.000Z</time>
      </trkpt>
      <trkpt lat="45.68179" lon="6.03473">
        <ele>1292.8000488281</ele>
        <time>2014-02-08T10:19:01.000Z</time>
      </trkpt>
      <trkpt lat="45.68206" lon="6.03513">
        <ele>1291</ele>
        <time>2014-02-08T10:19:06.000Z</time>
      </trkpt>
      <trkpt lat="45.68228" lon="6.03529">
        <ele>1289.4000244141</ele>
        <time>2014-02-08T10:19:09.000Z</time>
      </trkpt>
      <trkpt lat="45.68242" lon="6.0354">
        <ele>1287.8000488281</ele>
        <time>2014-02-08T10:19:11.000Z</time>
      </trkpt>
      <trkpt lat="45.68256" lon="6.03553">
        <ele>1286.4000244141</ele>
        <time>2014-02-08T10:19:13.000Z</time>
      </trkpt>
      <trkpt lat="45.68277" lon="6.0357">
        <ele>1285.8000488281</ele>
        <time>2014-02-08T10:19:16.000Z</time>
      </trkpt>
      <trkpt lat="45.68319" lon="6.03597">
        <ele>1286</ele>
        <time>2014-02-08T10:19:22.000Z</time>
      </trkpt>
      <trkpt lat="45.68343" lon="6.03614">
        <ele>1287.1999511719</ele>
        <time>2014-02-08T10:19:26.000Z</time>
      </trkpt>
      <trkpt lat="45.68357" lon="6.0363">
        <ele>1288</ele>
        <time>2014-02-08T10:19:29.000Z</time>
      </trkpt>
      <trkpt lat="45.6838" lon="6.03663">
        <ele>1288</ele>
        <time>2014-02-08T10:19:34.000Z</time>
      </trkpt>
      <trkpt lat="45.68387" lon="6.03681">
        <ele>1287.4000244141</ele>
        <time>2014-02-08T10:19:37.000Z</time>
      </trkpt>
      <trkpt lat="45.6838" lon="6.03716">
        <ele>1282.4000244141</ele>
        <time>2014-02-08T10:19:41.000Z</time>
      </trkpt>
      <trkpt lat="45.68376" lon="6.03725">
        <ele>1280.8000488281</ele>
        <time>2014-02-08T10:19:42.000Z</time>
      </trkpt>
      <trkpt lat="45.68375" lon="6.03763">
        <ele>1276.8000488281</ele>
        <time>2014-02-08T10:19:47.000Z</time>
      </trkpt>
      <trkpt lat="45.68376" lon="6.03769">
        <ele>1276.4000244141</ele>
        <time>2014-02-08T10:19:48.000Z</time>
      </trkpt>
      <trkpt lat="45.68377" lon="6.03783">
        <ele>1275.4000244141</ele>
        <time>2014-02-08T10:19:50.000Z</time>
      </trkpt>
      <trkpt lat="45.68388" lon="6.03806">
        <ele>1275</ele>
        <time>2014-02-08T10:19:54.000Z</time>
      </trkpt>
      <trkpt lat="45.68395" lon="6.03822">
        <ele>1274.5999755859</ele>
        <time>2014-02-08T10:19:56.000Z</time>
      </trkpt>
      <trkpt lat="45.68403" lon="6.03834">
        <ele>1274.8000488281</ele>
        <time>2014-02-08T10:19:58.000Z</time>
      </trkpt>
      <trkpt lat="45.68418" lon="6.03874">
        <ele>1271.5999755859</ele>
        <time>2014-02-08T10:20:03.000Z</time>
      </trkpt>
      <trkpt lat="45.68425" lon="6.03899">
        <ele>1269.4000244141</ele>
        <time>2014-02-08T10:20:06.000Z</time>
      </trkpt>
      <trkpt lat="45.68437" lon="6.03934">
        <ele>1266.5999755859</ele>
        <time>2014-02-08T10:20:10.000Z</time>
      </trkpt>
      <trkpt lat="45.68459" lon="6.03969">
        <ele>1264.8000488281</ele>
        <time>2014-02-08T10:20:15.000Z</time>
      </trkpt>
      <trkpt lat="45.68481" lon="6.04008">
        <ele>1261.5999755859</ele>
        <time>2014-02-08T10:20:20.000Z</time>
      </trkpt>
      <trkpt lat="45.68505" lon="6.04063">
        <ele>1257.8000488281</ele>
        <time>2014-02-08T10:20:26.000Z</time>
      </trkpt>
      <trkpt lat="45.68509" lon="6.04073">
        <ele>1257.4000244141</ele>
        <time>2014-02-08T10:20:27.000Z</time>
      </trkpt>
      <trkpt lat="45.68522" lon="6.04112">
        <ele>1255.1999511719</ele>
        <time>2014-02-08T10:20:31.000Z</time>
      </trkpt>
      <trkpt lat="45.68536" lon="6.04141">
        <ele>1253.5999755859</ele>
        <time>2014-02-08T10:20:34.000Z</time>
      </trkpt>
      <trkpt lat="45.6856" lon="6.04171">
        <ele>1251.1999511719</ele>
        <time>2014-02-08T10:20:38.000Z</time>
      </trkpt>
      <trkpt lat="45.68592" lon="6.04222">
        <ele>1246.8000488281</ele>
        <time>2014-02-08T10:20:44.000Z</time>
      </trkpt>
      <trkpt lat="45.68605" lon="6.04251">
        <ele>1244.4000244141</ele>
        <time>2014-02-08T10:20:47.000Z</time>
      </trkpt>
      <trkpt lat="45.68632" lon="6.04298">
        <ele>1240.5999755859</ele>
        <time>2014-02-08T10:20:52.000Z</time>
      </trkpt>
      <trkpt lat="45.68655" lon="6.0432">
        <ele>1239.4000244141</ele>
        <time>2014-02-08T10:20:55.000Z</time>
      </trkpt>
      <trkpt lat="45.6868" lon="6.04336">
        <ele>1239</ele>
        <time>2014-02-08T10:20:58.000Z</time>
      </trkpt>
      <trkpt lat="45.68701" lon="6.04359">
        <ele>1236.8000488281</ele>
        <time>2014-02-08T10:21:01.000Z</time>
      </trkpt>
      <trkpt lat="45.68721" lon="6.04385">
        <ele>1233.1999511719</ele>
        <time>2014-02-08T10:21:04.000Z</time>
      </trkpt>
      <trkpt lat="45.68765" lon="6.04425">
        <ele>1229.4000244141</ele>
        <time>2014-02-08T10:21:10.000Z</time>
      </trkpt>
      <trkpt lat="45.68801" lon="6.04458">
        <ele>1226.8000488281</ele>
        <time>2014-02-08T10:21:15.000Z</time>
      </trkpt>
      <trkpt lat="45.68837" lon="6.04489">
        <ele>1223</ele>
        <time>2014-02-08T10:21:20.000Z</time>
      </trkpt>
      <trkpt lat="45.68886" lon="6.04515">
        <ele>1223.1999511719</ele>
        <time>2014-02-08T10:21:26.000Z</time>
      </trkpt>
      <trkpt lat="45.68917" lon="6.04533">
        <ele>1222.4000244141</ele>
        <time>2014-02-08T10:21:30.000Z</time>
      </trkpt>
      <trkpt lat="45.6894" lon="6.04582">
        <ele>1217.4000244141</ele>
        <time>2014-02-08T10:21:35.000Z</time>
      </trkpt>
      <trkpt lat="45.68955" lon="6.04621">
        <ele>1214.1999511719</ele>
        <time>2014-02-08T10:21:39.000Z</time>
      </trkpt>
      <trkpt lat="45.68959" lon="6.04628">
        <ele>1213.8000488281</ele>
        <time>2014-02-08T10:21:40.000Z</time>
      </trkpt>
      <trkpt lat="45.68965" lon="6.0464">
        <ele>1212.5999755859</ele>
        <time>2014-02-08T10:21:42.000Z</time>
      </trkpt>
      <trkpt lat="45.68971" lon="6.04655">
        <ele>1210.8000488281</ele>
        <time>2014-02-08T10:21:46.000Z</time>
      </trkpt>
      <trkpt lat="45.68982" lon="6.04663">
        <ele>1210.1999511719</ele>
        <time>2014-02-08T10:21:51.000Z</time>
      </trkpt>
      <trkpt lat="45.68991" lon="6.04668">
        <ele>1210</ele>
        <time>2014-02-08T10:21:55.000Z</time>
      </trkpt>
      <trkpt lat="45.69001" lon="6.04669">
        <ele>1210.5999755859</ele>
        <time>2014-02-08T10:22:00.000Z</time>
      </trkpt>
      <trkpt lat="45.69007" lon="6.04667">
        <ele>1212.5999755859</ele>
        <time>2014-02-08T10:22:04.000Z</time>
      </trkpt>
      <trkpt lat="45.69014" lon="6.04666">
        <ele>1214.5999755859</ele>
        <time>2014-02-08T10:22:07.000Z</time>
      </trkpt>
      <trkpt lat="45.69022" lon="6.04666">
        <ele>1216.8000488281</ele>
        <time>2014-02-08T10:22:11.000Z</time>
      </trkpt>
      <trkpt lat="45.69033" lon="6.04669">
        <ele>1218.5999755859</ele>
        <time>2014-02-08T10:22:16.000Z</time>
      </trkpt>
      <trkpt lat="45.69042" lon="6.04674">
        <ele>1219.8000488281</ele>
        <time>2014-02-08T10:22:20.000Z</time>
      </trkpt>
      <trkpt lat="45.69045" lon="6.04675">
        <ele>1220.1999511719</ele>
        <time>2014-02-08T10:22:21.000Z</time>
      </trkpt>
      <trkpt lat="45.69048" lon="6.04677">
        <ele>1220.1999511719</ele>
        <time>2014-02-08T10:22:23.000Z</time>
      </trkpt>
      <trkpt lat="45.69062" lon="6.04676">
        <ele>1224</ele>
        <time>2014-02-08T10:22:28.000Z</time>
      </trkpt>
      <trkpt lat="45.69072" lon="6.04676">
        <ele>1226.4000244141</ele>
        <time>2014-02-08T10:22:31.000Z</time>
      </trkpt>
      <trkpt lat="45.69084" lon="6.0468">
        <ele>1227.8000488281</ele>
        <time>2014-02-08T10:22:36.000Z</time>
      </trkpt>
      <trkpt lat="45.6909" lon="6.04686">
        <ele>1227.1999511719</ele>
        <time>2014-02-08T10:22:39.000Z</time>
      </trkpt>
      <trkpt lat="45.69101" lon="6.04689">
        <ele>1228.1999511719</ele>
        <time>2014-02-08T10:22:43.000Z</time>
      </trkpt>
      <trkpt lat="45.69109" lon="6.04696">
        <ele>1227.8000488281</ele>
        <time>2014-02-08T10:22:47.000Z</time>
      </trkpt>
      <trkpt lat="45.69119" lon="6.04702">
        <ele>1228</ele>
        <time>2014-02-08T10:22:52.000Z</time>
      </trkpt>
      <trkpt lat="45.69132" lon="6.04709">
        <ele>1228.4000244141</ele>
        <time>2014-02-08T10:22:58.000Z</time>
      </trkpt>
      <trkpt lat="45.69141" lon="6.04712">
        <ele>1229.4000244141</ele>
        <time>2014-02-08T10:23:02.000Z</time>
      </trkpt>
      <trkpt lat="45.69143" lon="6.04715">
        <ele>1229</ele>
        <time>2014-02-08T10:23:04.000Z</time>
      </trkpt>
      <trkpt lat="45.69133" lon="6.04731">
        <ele>1222.8000488281</ele>
        <time>2014-02-08T10:24:49.000Z</time>
      </trkpt>
      <trkpt lat="45.69133" lon="6.04732">
        <ele>1222.1999511719</ele>
        <time>2014-02-08T10:24:50.000Z</time>
      </trkpt>
      <trkpt lat="45.69137" lon="6.04734">
        <ele>1222.5999755859</ele>
        <time>2014-02-08T10:24:53.000Z</time>
      </trkpt>
      <trkpt lat="45.69142" lon="6.04737">
        <ele>1222.8000488281</ele>
        <time>2014-02-08T10:24:55.000Z</time>
      </trkpt>
      <trkpt lat="45.69153" lon="6.04738">
        <ele>1224.8000488281</ele>
        <time>2014-02-08T10:24:59.000Z</time>
      </trkpt>
      <trkpt lat="45.69161" lon="6.04736">
        <ele>1227.4000244141</ele>
        <time>2014-02-08T10:25:05.000Z</time>
      </trkpt>
      <trkpt lat="45.69166" lon="6.04732">
        <ele>1229.5999755859</ele>
        <time>2014-02-08T10:25:12.000Z</time>
      </trkpt>
      <trkpt lat="45.69171" lon="6.0473">
        <ele>1230.5999755859</ele>
        <time>2014-02-08T10:25:15.000Z</time>
      </trkpt>
      <trkpt lat="45.69177" lon="6.04723">
        <ele>1233</ele>
        <time>2014-02-08T10:25:19.000Z</time>
      </trkpt>
      <trkpt lat="45.69188" lon="6.04714">
        <ele>1236.1999511719</ele>
        <time>2014-02-08T10:25:24.000Z</time>
      </trkpt>
      <trkpt lat="45.69195" lon="6.04709">
        <ele>1238.1999511719</ele>
        <time>2014-02-08T10:25:27.000Z</time>
      </trkpt>
      <trkpt lat="45.69203" lon="6.04707">
        <ele>1239.1999511719</ele>
        <time>2014-02-08T10:25:31.000Z</time>
      </trkpt>
      <trkpt lat="45.69212" lon="6.04712">
        <ele>1239</ele>
        <time>2014-02-08T10:25:35.000Z</time>
      </trkpt>
      <trkpt lat="45.69215" lon="6.04714">
        <ele>1238.8000488281</ele>
        <time>2014-02-08T10:25:36.000Z</time>
      </trkpt>
      <trkpt lat="45.6922" lon="6.04719">
        <ele>1238.4000244141</ele>
        <time>2014-02-08T10:25:38.000Z</time>
      </trkpt>
      <trkpt lat="45.69228" lon="6.04725">
        <ele>1237.8000488281</ele>
        <time>2014-02-08T10:25:42.000Z</time>
      </trkpt>
      <trkpt lat="45.69239" lon="6.04733">
        <ele>1237.4000244141</ele>
        <time>2014-02-08T10:25:47.000Z</time>
      </trkpt>
      <trkpt lat="45.69242" lon="6.04734">
        <ele>1237.4000244141</ele>
        <time>2014-02-08T10:25:48.000Z</time>
      </trkpt>
      <trkpt lat="45.69253" lon="6.04735">
        <ele>1238.1999511719</ele>
        <time>2014-02-08T10:25:53.000Z</time>
      </trkpt>
      <trkpt lat="45.69255" lon="6.04734">
        <ele>1238.4000244141</ele>
        <time>2014-02-08T10:25:54.000Z</time>
      </trkpt>
      <trkpt lat="45.69264" lon="6.04721">
        <ele>1241.1999511719</ele>
        <time>2014-02-08T10:26:00.000Z</time>
      </trkpt>
      <trkpt lat="45.69275" lon="6.04713">
        <ele>1242.8000488281</ele>
        <time>2014-02-08T10:26:05.000Z</time>
      </trkpt>
      <trkpt lat="45.69286" lon="6.04712">
        <ele>1243</ele>
        <time>2014-02-08T10:26:10.000Z</time>
      </trkpt>
      <trkpt lat="45.69288" lon="6.04713">
        <ele>1242.8000488281</ele>
        <time>2014-02-08T10:26:11.000Z</time>
      </trkpt>
      <trkpt lat="45.69297" lon="6.04711">
        <ele>1243.1999511719</ele>
        <time>2014-02-08T10:26:15.000Z</time>
      </trkpt>
      <trkpt lat="45.69301" lon="6.04707">
        <ele>1244</ele>
        <time>2014-02-08T10:26:17.000Z</time>
      </trkpt>
      <trkpt lat="45.69311" lon="6.04696">
        <ele>1246</ele>
        <time>2014-02-08T10:26:22.000Z</time>
      </trkpt>
      <trkpt lat="45.69316" lon="6.04691">
        <ele>1247</ele>
        <time>2014-02-08T10:26:25.000Z</time>
      </trkpt>
      <trkpt lat="45.69323" lon="6.04677">
        <ele>1249.4000244141</ele>
        <time>2014-02-08T10:26:31.000Z</time>
      </trkpt>
      <trkpt lat="45.69327" lon="6.0467">
        <ele>1250.5999755859</ele>
        <time>2014-02-08T10:26:34.000Z</time>
      </trkpt>
      <trkpt lat="45.69335" lon="6.04658">
        <ele>1252.8000488281</ele>
        <time>2014-02-08T10:26:39.000Z</time>
      </trkpt>
      <trkpt lat="45.69337" lon="6.04657">
        <ele>1253.1999511719</ele>
        <time>2014-02-08T10:26:40.000Z</time>
      </trkpt>
      <trkpt lat="45.69342" lon="6.04655">
        <ele>1253.8000488281</ele>
        <time>2014-02-08T10:26:42.000Z</time>
      </trkpt>
      <trkpt lat="45.69353" lon="6.04658">
        <ele>1253.8000488281</ele>
        <time>2014-02-08T10:26:47.000Z</time>
      </trkpt>
      <trkpt lat="45.69356" lon="6.0466">
        <ele>1253.5999755859</ele>
        <time>2014-02-08T10:26:49.000Z</time>
      </trkpt>
      <trkpt lat="45.69365" lon="6.04665">
        <ele>1252.8000488281</ele>
        <time>2014-02-08T10:26:53.000Z</time>
      </trkpt>
      <trkpt lat="45.69375" lon="6.04673">
        <ele>1252</ele>
        <time>2014-02-08T10:26:58.000Z</time>
      </trkpt>
      <trkpt lat="45.6938" lon="6.04674">
        <ele>1252.1999511719</ele>
        <time>2014-02-08T10:27:01.000Z</time>
      </trkpt>
      <trkpt lat="45.69385" lon="6.04672">
        <ele>1252.5999755859</ele>
        <time>2014-02-08T10:27:05.000Z</time>
      </trkpt>
      <trkpt lat="45.69387" lon="6.0467">
        <ele>1253.1999511719</ele>
        <time>2014-02-08T10:27:07.000Z</time>
      </trkpt>
      <trkpt lat="45.69394" lon="6.04661">
        <ele>1254.8000488281</ele>
        <time>2014-02-08T10:27:12.000Z</time>
      </trkpt>
      <trkpt lat="45.69395" lon="6.0466">
        <ele>1255.1999511719</ele>
        <time>2014-02-08T10:27:13.000Z</time>
      </trkpt>
      <trkpt lat="45.694" lon="6.0465">
        <ele>1257</ele>
        <time>2014-02-08T10:27:17.000Z</time>
      </trkpt>
      <trkpt lat="45.69405" lon="6.04645">
        <ele>1257.8000488281</ele>
        <time>2014-02-08T10:27:20.000Z</time>
      </trkpt>
      <trkpt lat="45.6941" lon="6.04642">
        <ele>1258.4000244141</ele>
        <time>2014-02-08T10:27:23.000Z</time>
      </trkpt>
      <trkpt lat="45.69422" lon="6.0464">
        <ele>1259.5999755859</ele>
        <time>2014-02-08T10:27:29.000Z</time>
      </trkpt>
      <trkpt lat="45.69434" lon="6.04643">
        <ele>1260.4000244141</ele>
        <time>2014-02-08T10:27:35.000Z</time>
      </trkpt>
      <trkpt lat="45.69436" lon="6.04645">
        <ele>1260.4000244141</ele>
        <time>2014-02-08T10:27:36.000Z</time>
      </trkpt>
      <trkpt lat="45.6944" lon="6.04652">
        <ele>1260</ele>
        <time>2014-02-08T10:27:39.000Z</time>
      </trkpt>
      <trkpt lat="45.69446" lon="6.04662">
        <ele>1259.5999755859</ele>
        <time>2014-02-08T10:27:43.000Z</time>
      </trkpt>
      <trkpt lat="45.69454" lon="6.04672">
        <ele>1259.1999511719</ele>
        <time>2014-02-08T10:27:48.000Z</time>
      </trkpt>
      <trkpt lat="45.69454" lon="6.04674">
        <ele>1259</ele>
        <time>2014-02-08T10:27:49.000Z</time>
      </trkpt>
      <trkpt lat="45.6946" lon="6.04678">
        <ele>1259.1999511719</ele>
        <time>2014-02-08T10:27:52.000Z</time>
      </trkpt>
      <trkpt lat="45.69469" lon="6.04684">
        <ele>1259.5999755859</ele>
        <time>2014-02-08T10:27:56.000Z</time>
      </trkpt>
      <trkpt lat="45.69474" lon="6.04693">
        <ele>1259</ele>
        <time>2014-02-08T10:27:59.000Z</time>
      </trkpt>
      <trkpt lat="45.69483" lon="6.047">
        <ele>1259.1999511719</ele>
        <time>2014-02-08T10:28:03.000Z</time>
      </trkpt>
      <trkpt lat="45.69487" lon="6.04709">
        <ele>1258.5999755859</ele>
        <time>2014-02-08T10:28:06.000Z</time>
      </trkpt>
      <trkpt lat="45.69489" lon="6.04718">
        <ele>1257.8000488281</ele>
        <time>2014-02-08T10:28:09.000Z</time>
      </trkpt>
      <trkpt lat="45.69496" lon="6.04731">
        <ele>1257</ele>
        <time>2014-02-08T10:28:14.000Z</time>
      </trkpt>
      <trkpt lat="45.69501" lon="6.04741">
        <ele>1256.1999511719</ele>
        <time>2014-02-08T10:28:18.000Z</time>
      </trkpt>
      <trkpt lat="45.69509" lon="6.04744">
        <ele>1256.4000244141</ele>
        <time>2014-02-08T10:28:22.000Z</time>
      </trkpt>
      <trkpt lat="45.69515" lon="6.04744">
        <ele>1256.8000488281</ele>
        <time>2014-02-08T10:28:26.000Z</time>
      </trkpt>
      <trkpt lat="45.69523" lon="6.04742">
        <ele>1257.4000244141</ele>
        <time>2014-02-08T10:28:30.000Z</time>
      </trkpt>
      <trkpt lat="45.69529" lon="6.04739">
        <ele>1258.1999511719</ele>
        <time>2014-02-08T10:28:34.000Z</time>
      </trkpt>
      <trkpt lat="45.69542" lon="6.0473">
        <ele>1260.4000244141</ele>
        <time>2014-02-08T10:28:41.000Z</time>
      </trkpt>
      <trkpt lat="45.69552" lon="6.04723">
        <ele>1262</ele>
        <time>2014-02-08T10:28:45.000Z</time>
      </trkpt>
      <trkpt lat="45.6956" lon="6.04719">
        <ele>1263.1999511719</ele>
        <time>2014-02-08T10:28:49.000Z</time>
      </trkpt>
      <trkpt lat="45.69567" lon="6.04716">
        <ele>1264.1999511719</ele>
        <time>2014-02-08T10:28:52.000Z</time>
      </trkpt>
      <trkpt lat="45.69576" lon="6.04716">
        <ele>1264.8000488281</ele>
        <time>2014-02-08T10:28:56.000Z</time>
      </trkpt>
      <trkpt lat="45.69586" lon="6.04716">
        <ele>1265.1999511719</ele>
        <time>2014-02-08T10:29:01.000Z</time>
      </trkpt>
      <trkpt lat="45.69594" lon="6.04719">
        <ele>1264.5999755859</ele>
        <time>2014-02-08T10:29:05.000Z</time>
      </trkpt>
      <trkpt lat="45.69598" lon="6.0472">
        <ele>1264.4000244141</ele>
        <time>2014-02-08T10:29:07.000Z</time>
      </trkpt>
      <trkpt lat="45.69609" lon="6.04717">
        <ele>1264.5999755859</ele>
        <time>2014-02-08T10:29:11.000Z</time>
      </trkpt>
      <trkpt lat="45.69619" lon="6.04712">
        <ele>1265.4000244141</ele>
        <time>2014-02-08T10:29:16.000Z</time>
      </trkpt>
      <trkpt lat="45.69623" lon="6.04709">
        <ele>1265.8000488281</ele>
        <time>2014-02-08T10:29:18.000Z</time>
      </trkpt>
      <trkpt lat="45.69628" lon="6.04706">
        <ele>1266.4000244141</ele>
        <time>2014-02-08T10:29:21.000Z</time>
      </trkpt>
      <trkpt lat="45.69635" lon="6.047">
        <ele>1267.4000244141</ele>
        <time>2014-02-08T10:29:26.000Z</time>
      </trkpt>
      <trkpt lat="45.69637" lon="6.04699">
        <ele>1267.5999755859</ele>
        <time>2014-02-08T10:29:27.000Z</time>
      </trkpt>
      <trkpt lat="45.69645" lon="6.04697">
        <ele>1268</ele>
        <time>2014-02-08T10:29:31.000Z</time>
      </trkpt>
      <trkpt lat="45.69654" lon="6.04691">
        <ele>1269</ele>
        <time>2014-02-08T10:29:35.000Z</time>
      </trkpt>
      <trkpt lat="45.69664" lon="6.04688">
        <ele>1269.5999755859</ele>
        <time>2014-02-08T10:29:39.000Z</time>
      </trkpt>
      <trkpt lat="45.69677" lon="6.04683">
        <ele>1271</ele>
        <time>2014-02-08T10:29:45.000Z</time>
      </trkpt>
      <trkpt lat="45.69681" lon="6.04682">
        <ele>1271.1999511719</ele>
        <time>2014-02-08T10:29:47.000Z</time>
      </trkpt>
      <trkpt lat="45.69692" lon="6.04679">
        <ele>1272</ele>
        <time>2014-02-08T10:29:52.000Z</time>
      </trkpt>
      <trkpt lat="45.69703" lon="6.04668">
        <ele>1274.5999755859</ele>
        <time>2014-02-08T10:29:57.000Z</time>
      </trkpt>
      <trkpt lat="45.69708" lon="6.04659">
        <ele>1276.4000244141</ele>
        <time>2014-02-08T10:30:00.000Z</time>
      </trkpt>
      <trkpt lat="45.69707" lon="6.04651">
        <ele>1278</ele>
        <time>2014-02-08T10:30:03.000Z</time>
      </trkpt>
      <trkpt lat="45.69697" lon="6.04644">
        <ele>1278.8000488281</ele>
        <time>2014-02-08T10:30:09.000Z</time>
      </trkpt>
      <trkpt lat="45.69689" lon="6.04648">
        <ele>1278</ele>
        <time>2014-02-08T10:30:14.000Z</time>
      </trkpt>
      <trkpt lat="45.69686" lon="6.04649">
        <ele>1277.5999755859</ele>
        <time>2014-02-08T10:30:16.000Z</time>
      </trkpt>
      <trkpt lat="45.6968" lon="6.04654">
        <ele>1276.5999755859</ele>
        <time>2014-02-08T10:30:20.000Z</time>
      </trkpt>
      <trkpt lat="45.69669" lon="6.04658">
        <ele>1275.5999755859</ele>
        <time>2014-02-08T10:30:26.000Z</time>
      </trkpt>
      <trkpt lat="45.69661" lon="6.04661">
        <ele>1275</ele>
        <time>2014-02-08T10:30:31.000Z</time>
      </trkpt>
      <trkpt lat="45.69657" lon="6.04662">
        <ele>1274.5999755859</ele>
        <time>2014-02-08T10:30:33.000Z</time>
      </trkpt>
      <trkpt lat="45.69648" lon="6.0466">
        <ele>1274.8000488281</ele>
        <time>2014-02-08T10:30:38.000Z</time>
      </trkpt>
      <trkpt lat="45.69641" lon="6.04657">
        <ele>1275.1999511719</ele>
        <time>2014-02-08T10:30:42.000Z</time>
      </trkpt>
      <trkpt lat="45.69632" lon="6.04651">
        <ele>1276</ele>
        <time>2014-02-08T10:30:47.000Z</time>
      </trkpt>
      <trkpt lat="45.69629" lon="6.04647">
        <ele>1276.5999755859</ele>
        <time>2014-02-08T10:30:49.000Z</time>
      </trkpt>
      <trkpt lat="45.69624" lon="6.0464">
        <ele>1277.4000244141</ele>
        <time>2014-02-08T10:30:53.000Z</time>
      </trkpt>
      <trkpt lat="45.69616" lon="6.0463">
        <ele>1278.5999755859</ele>
        <time>2014-02-08T10:30:59.000Z</time>
      </trkpt>
      <trkpt lat="45.69609" lon="6.04624">
        <ele>1279.1999511719</ele>
        <time>2014-02-08T10:31:04.000Z</time>
      </trkpt>
      <trkpt lat="45.69601" lon="6.04618">
        <ele>1279.5999755859</ele>
        <time>2014-02-08T10:31:09.000Z</time>
      </trkpt>
      <trkpt lat="45.69594" lon="6.04615">
        <ele>1279.8000488281</ele>
        <time>2014-02-08T10:31:13.000Z</time>
      </trkpt>
      <trkpt lat="45.69589" lon="6.04612">
        <ele>1279.8000488281</ele>
        <time>2014-02-08T10:31:16.000Z</time>
      </trkpt>
      <trkpt lat="45.69584" lon="6.04605">
        <ele>1280.4000244141</ele>
        <time>2014-02-08T10:31:20.000Z</time>
      </trkpt>
      <trkpt lat="45.69577" lon="6.04599">
        <ele>1280.4000244141</ele>
        <time>2014-02-08T10:31:23.000Z</time>
      </trkpt>
      <trkpt lat="45.69575" lon="6.04588">
        <ele>1281.4000244141</ele>
        <time>2014-02-08T10:31:26.000Z</time>
      </trkpt>
      <trkpt lat="45.69575" lon="6.04582">
        <ele>1282.1999511719</ele>
        <time>2014-02-08T10:31:28.000Z</time>
      </trkpt>
      <trkpt lat="45.69573" lon="6.04565">
        <ele>1283.5999755859</ele>
        <time>2014-02-08T10:31:34.000Z</time>
      </trkpt>
      <trkpt lat="45.6957" lon="6.04557">
        <ele>1284</ele>
        <time>2014-02-08T10:31:38.000Z</time>
      </trkpt>
      <trkpt lat="45.6957" lon="6.04555">
        <ele>1284.1999511719</ele>
        <time>2014-02-08T10:31:39.000Z</time>
      </trkpt>
      <trkpt lat="45.69561" lon="6.04539">
        <ele>1284.8000488281</ele>
        <time>2014-02-08T10:31:46.000Z</time>
      </trkpt>
      <trkpt lat="45.69557" lon="6.04531">
        <ele>1285.1999511719</ele>
        <time>2014-02-08T10:31:50.000Z</time>
      </trkpt>
      <trkpt lat="45.69555" lon="6.04526">
        <ele>1285.4000244141</ele>
        <time>2014-02-08T10:31:52.000Z</time>
      </trkpt>
      <trkpt lat="45.69551" lon="6.04508">
        <ele>1286.8000488281</ele>
        <time>2014-02-08T10:31:59.000Z</time>
      </trkpt>
      <trkpt lat="45.69551" lon="6.04503">
        <ele>1287.1999511719</ele>
        <time>2014-02-08T10:32:01.000Z</time>
      </trkpt>
      <trkpt lat="45.69552" lon="6.04489">
        <ele>1288.5999755859</ele>
        <time>2014-02-08T10:32:06.000Z</time>
      </trkpt>
      <trkpt lat="45.69553" lon="6.04476">
        <ele>1289.8000488281</ele>
        <time>2014-02-08T10:32:10.000Z</time>
      </trkpt>
      <trkpt lat="45.69554" lon="6.04464">
        <ele>1291</ele>
        <time>2014-02-08T10:32:14.000Z</time>
      </trkpt>
      <trkpt lat="45.69555" lon="6.04453">
        <ele>1292</ele>
        <time>2014-02-08T10:32:18.000Z</time>
      </trkpt>
      <trkpt lat="45.69557" lon="6.04442">
        <ele>1293.1999511719</ele>
        <time>2014-02-08T10:32:22.000Z</time>
      </trkpt>
      <trkpt lat="45.69563" lon="6.04432">
        <ele>1294.4000244141</ele>
        <time>2014-02-08T10:32:26.000Z</time>
      </trkpt>
      <trkpt lat="45.69569" lon="6.04421">
        <ele>1295.8000488281</ele>
        <time>2014-02-08T10:32:30.000Z</time>
      </trkpt>
      <trkpt lat="45.69577" lon="6.04402">
        <ele>1297.1999511719</ele>
        <time>2014-02-08T10:32:35.000Z</time>
      </trkpt>
      <trkpt lat="45.69582" lon="6.04391">
        <ele>1297.8000488281</ele>
        <time>2014-02-08T10:32:38.000Z</time>
      </trkpt>
      <trkpt lat="45.69595" lon="6.04369">
        <ele>1299.8000488281</ele>
        <time>2014-02-08T10:32:45.000Z</time>
      </trkpt>
      <trkpt lat="45.69606" lon="6.04354">
        <ele>1301.1999511719</ele>
        <time>2014-02-08T10:32:50.000Z</time>
      </trkpt>
      <trkpt lat="45.69615" lon="6.0434">
        <ele>1302.1999511719</ele>
        <time>2014-02-08T10:32:54.000Z</time>
      </trkpt>
      <trkpt lat="45.69625" lon="6.04323">
        <ele>1303</ele>
        <time>2014-02-08T10:32:59.000Z</time>
      </trkpt>
      <trkpt lat="45.69636" lon="6.04311">
        <ele>1303.8000488281</ele>
        <time>2014-02-08T10:33:03.000Z</time>
      </trkpt>
      <trkpt lat="45.69653" lon="6.04298">
        <ele>1304.4000244141</ele>
        <time>2014-02-08T10:33:09.000Z</time>
      </trkpt>
      <trkpt lat="45.69663" lon="6.04287">
        <ele>1304.8000488281</ele>
        <time>2014-02-08T10:33:13.000Z</time>
      </trkpt>
      <trkpt lat="45.69669" lon="6.04282">
        <ele>1304.8000488281</ele>
        <time>2014-02-08T10:33:15.000Z</time>
      </trkpt>
      <trkpt lat="45.6968" lon="6.04271">
        <ele>1305</ele>
        <time>2014-02-08T10:33:19.000Z</time>
      </trkpt>
      <trkpt lat="45.69697" lon="6.04257">
        <ele>1305.4000244141</ele>
        <time>2014-02-08T10:33:24.000Z</time>
      </trkpt>
      <trkpt lat="45.6971" lon="6.04242">
        <ele>1305.5999755859</ele>
        <time>2014-02-08T10:33:28.000Z</time>
      </trkpt>
      <trkpt lat="45.69714" lon="6.04239">
        <ele>1305.8000488281</ele>
        <time>2014-02-08T10:33:29.000Z</time>
      </trkpt>
      <trkpt lat="45.69716" lon="6.04215">
        <ele>1306.1999511719</ele>
        <time>2014-02-08T10:33:34.000Z</time>
      </trkpt>
      <trkpt lat="45.69709" lon="6.04195">
        <ele>1306.1999511719</ele>
        <time>2014-02-08T10:33:38.000Z</time>
      </trkpt>
      <trkpt lat="45.69696" lon="6.04183">
        <ele>1305.5999755859</ele>
        <time>2014-02-08T10:33:42.000Z</time>
      </trkpt>
      <trkpt lat="45.69682" lon="6.04174">
        <ele>1304.8000488281</ele>
        <time>2014-02-08T10:33:46.000Z</time>
      </trkpt>
      <trkpt lat="45.69669" lon="6.04168">
        <ele>1304.1999511719</ele>
        <time>2014-02-08T10:33:50.000Z</time>
      </trkpt>
      <trkpt lat="45.6966" lon="6.04167">
        <ele>1304.1999511719</ele>
        <time>2014-02-08T10:33:53.000Z</time>
      </trkpt>
      <trkpt lat="45.69648" lon="6.04165">
        <ele>1304.5999755859</ele>
        <time>2014-02-08T10:33:57.000Z</time>
      </trkpt>
      <trkpt lat="45.69645" lon="6.04164">
        <ele>1304.8000488281</ele>
        <time>2014-02-08T10:33:58.000Z</time>
      </trkpt>
      <trkpt lat="45.6963" lon="6.04155">
        <ele>1306</ele>
        <time>2014-02-08T10:34:04.000Z</time>
      </trkpt>
      <trkpt lat="45.6962" lon="6.04142">
        <ele>1307.4000244141</ele>
        <time>2014-02-08T10:34:09.000Z</time>
      </trkpt>
      <trkpt lat="45.69612" lon="6.04138">
        <ele>1308</ele>
        <time>2014-02-08T10:34:12.000Z</time>
      </trkpt>
      <trkpt lat="45.69606" lon="6.04137">
        <ele>1308.1999511719</ele>
        <time>2014-02-08T10:34:16.000Z</time>
      </trkpt>
      <trkpt lat="45.69594" lon="6.04139">
        <ele>1308.4000244141</ele>
        <time>2014-02-08T10:34:21.000Z</time>
      </trkpt>
      <trkpt lat="45.69585" lon="6.04139">
        <ele>1308.5999755859</ele>
        <time>2014-02-08T10:34:26.000Z</time>
      </trkpt>
      <trkpt lat="45.69576" lon="6.04143">
        <ele>1308.4000244141</ele>
        <time>2014-02-08T10:34:31.000Z</time>
      </trkpt>
      <trkpt lat="45.69573" lon="6.04145">
        <ele>1308.1999511719</ele>
        <time>2014-02-08T10:34:33.000Z</time>
      </trkpt>
      <trkpt lat="45.69563" lon="6.04151">
        <ele>1307.8000488281</ele>
        <time>2014-02-08T10:34:38.000Z</time>
      </trkpt>
      <trkpt lat="45.69556" lon="6.04156">
        <ele>1307.4000244141</ele>
        <time>2014-02-08T10:34:42.000Z</time>
      </trkpt>
      <trkpt lat="45.69551" lon="6.04164">
        <ele>1306.5999755859</ele>
        <time>2014-02-08T10:34:46.000Z</time>
      </trkpt>
      <trkpt lat="45.6955" lon="6.04173">
        <ele>1306.1999511719</ele>
        <time>2014-02-08T10:34:49.000Z</time>
      </trkpt>
      <trkpt lat="45.69547" lon="6.04181">
        <ele>1305.8000488281</ele>
        <time>2014-02-08T10:34:52.000Z</time>
      </trkpt>
      <trkpt lat="45.69544" lon="6.04188">
        <ele>1305.5999755859</ele>
        <time>2014-02-08T10:34:55.000Z</time>
      </trkpt>
      <trkpt lat="45.69541" lon="6.04201">
        <ele>1305</ele>
        <time>2014-02-08T10:34:59.000Z</time>
      </trkpt>
      <trkpt lat="45.69534" lon="6.04212">
        <ele>1304.5999755859</ele>
        <time>2014-02-08T10:35:03.000Z</time>
      </trkpt>
      <trkpt lat="45.69524" lon="6.04217">
        <ele>1304.4000244141</ele>
        <time>2014-02-08T10:35:06.000Z</time>
      </trkpt>
      <trkpt lat="45.69517" lon="6.04214">
        <ele>1304.5999755859</ele>
        <time>2014-02-08T10:35:09.000Z</time>
      </trkpt>
      <trkpt lat="45.69512" lon="6.04207">
        <ele>1305</ele>
        <time>2014-02-08T10:35:12.000Z</time>
      </trkpt>
      <trkpt lat="45.69506" lon="6.04195">
        <ele>1305.5999755859</ele>
        <time>2014-02-08T10:35:16.000Z</time>
      </trkpt>
      <trkpt lat="45.69503" lon="6.04187">
        <ele>1306</ele>
        <time>2014-02-08T10:35:19.000Z</time>
      </trkpt>
      <trkpt lat="45.69499" lon="6.04188">
        <ele>1306</ele>
        <time>2014-02-08T10:35:29.000Z</time>
      </trkpt>
      <trkpt lat="45.69498" lon="6.04186">
        <ele>1306.1999511719</ele>
        <time>2014-02-08T10:35:44.000Z</time>
      </trkpt>
      <trkpt lat="45.69496" lon="6.04183">
        <ele>1306.4000244141</ele>
        <time>2014-02-08T10:35:53.000Z</time>
      </trkpt>
      <trkpt lat="45.69495" lon="6.04168">
        <ele>1307.1999511719</ele>
        <time>2014-02-08T10:35:58.000Z</time>
      </trkpt>
      <trkpt lat="45.69492" lon="6.04156">
        <ele>1308.4000244141</ele>
        <time>2014-02-08T10:36:02.000Z</time>
      </trkpt>
      <trkpt lat="45.69492" lon="6.04142">
        <ele>1310</ele>
        <time>2014-02-08T10:36:06.000Z</time>
      </trkpt>
      <trkpt lat="45.69491" lon="6.04125">
        <ele>1311.5999755859</ele>
        <time>2014-02-08T10:36:10.000Z</time>
      </trkpt>
      <trkpt lat="45.69488" lon="6.04107">
        <ele>1313.4000244141</ele>
        <time>2014-02-08T10:36:15.000Z</time>
      </trkpt>
      <trkpt lat="45.69485" lon="6.04098">
        <ele>1314.1999511719</ele>
        <time>2014-02-08T10:36:18.000Z</time>
      </trkpt>
      <trkpt lat="45.6948" lon="6.04081">
        <ele>1315.5999755859</ele>
        <time>2014-02-08T10:36:23.000Z</time>
      </trkpt>
      <trkpt lat="45.6947" lon="6.04072">
        <ele>1315.5999755859</ele>
        <time>2014-02-08T10:36:27.000Z</time>
      </trkpt>
      <trkpt lat="45.69464" lon="6.04071">
        <ele>1315.4000244141</ele>
        <time>2014-02-08T10:36:29.000Z</time>
      </trkpt>
      <trkpt lat="45.69453" lon="6.04081">
        <ele>1315</ele>
        <time>2014-02-08T10:36:34.000Z</time>
      </trkpt>
      <trkpt lat="45.69443" lon="6.04092">
        <ele>1314.1999511719</ele>
        <time>2014-02-08T10:36:38.000Z</time>
      </trkpt>
      <trkpt lat="45.69436" lon="6.04097">
        <ele>1313.8000488281</ele>
        <time>2014-02-08T10:36:41.000Z</time>
      </trkpt>
      <trkpt lat="45.69425" lon="6.04099">
        <ele>1313.5999755859</ele>
        <time>2014-02-08T10:36:45.000Z</time>
      </trkpt>
      <trkpt lat="45.69419" lon="6.04099">
        <ele>1313.4000244141</ele>
        <time>2014-02-08T10:36:48.000Z</time>
      </trkpt>
      <trkpt lat="45.69411" lon="6.04104">
        <ele>1313.8000488281</ele>
        <time>2014-02-08T10:36:52.000Z</time>
      </trkpt>
      <trkpt lat="45.69404" lon="6.04108">
        <ele>1314.5999755859</ele>
        <time>2014-02-08T10:36:55.000Z</time>
      </trkpt>
      <trkpt lat="45.69397" lon="6.04112">
        <ele>1315.1999511719</ele>
        <time>2014-02-08T10:36:58.000Z</time>
      </trkpt>
      <trkpt lat="45.69387" lon="6.04122">
        <ele>1316.4000244141</ele>
        <time>2014-02-08T10:37:03.000Z</time>
      </trkpt>
      <trkpt lat="45.69379" lon="6.04129">
        <ele>1317.5999755859</ele>
        <time>2014-02-08T10:37:07.000Z</time>
      </trkpt>
      <trkpt lat="45.69362" lon="6.04129">
        <ele>1319.8000488281</ele>
        <time>2014-02-08T10:37:12.000Z</time>
      </trkpt>
      <trkpt lat="45.6935" lon="6.0412">
        <ele>1321</ele>
        <time>2014-02-08T10:37:15.000Z</time>
      </trkpt>
      <trkpt lat="45.69339" lon="6.04107">
        <ele>1321.8000488281</ele>
        <time>2014-02-08T10:37:19.000Z</time>
      </trkpt>
      <trkpt lat="45.69331" lon="6.04097">
        <ele>1322</ele>
        <time>2014-02-08T10:37:22.000Z</time>
      </trkpt>
      <trkpt lat="45.69327" lon="6.04091">
        <ele>1322</ele>
        <time>2014-02-08T10:37:24.000Z</time>
      </trkpt>
      <trkpt lat="45.69318" lon="6.04077">
        <ele>1322.1999511719</ele>
        <time>2014-02-08T10:37:28.000Z</time>
      </trkpt>
      <trkpt lat="45.69308" lon="6.04062">
        <ele>1323</ele>
        <time>2014-02-08T10:37:33.000Z</time>
      </trkpt>
      <trkpt lat="45.69298" lon="6.04049">
        <ele>1323.5999755859</ele>
        <time>2014-02-08T10:37:37.000Z</time>
      </trkpt>
      <trkpt lat="45.6929" lon="6.04035">
        <ele>1324</ele>
        <time>2014-02-08T10:37:42.000Z</time>
      </trkpt>
      <trkpt lat="45.69284" lon="6.04024">
        <ele>1324.1999511719</ele>
        <time>2014-02-08T10:37:46.000Z</time>
      </trkpt>
      <trkpt lat="45.6928" lon="6.04012">
        <ele>1324.4000244141</ele>
        <time>2014-02-08T10:37:50.000Z</time>
      </trkpt>
      <trkpt lat="45.69272" lon="6.04">
        <ele>1324.5999755859</ele>
        <time>2014-02-08T10:37:55.000Z</time>
      </trkpt>
      <trkpt lat="45.6927" lon="6.03996">
        <ele>1325.1999511719</ele>
        <time>2014-02-08T10:37:57.000Z</time>
      </trkpt>
      <trkpt lat="45.69266" lon="6.03977">
        <ele>1327</ele>
        <time>2014-02-08T10:38:03.000Z</time>
      </trkpt>
      <trkpt lat="45.69263" lon="6.03969">
        <ele>1328</ele>
        <time>2014-02-08T10:38:07.000Z</time>
      </trkpt>
      <trkpt lat="45.69254" lon="6.03959">
        <ele>1329.1999511719</ele>
        <time>2014-02-08T10:38:11.000Z</time>
      </trkpt>
      <trkpt lat="45.69243" lon="6.03955">
        <ele>1330</ele>
        <time>2014-02-08T10:38:16.000Z</time>
      </trkpt>
      <trkpt lat="45.69232" lon="6.03949">
        <ele>1330.5999755859</ele>
        <time>2014-02-08T10:38:21.000Z</time>
      </trkpt>
      <trkpt lat="45.69222" lon="6.03943">
        <ele>1331</ele>
        <time>2014-02-08T10:38:25.000Z</time>
      </trkpt>
      <trkpt lat="45.69211" lon="6.03937">
        <ele>1331.1999511719</ele>
        <time>2014-02-08T10:38:30.000Z</time>
      </trkpt>
      <trkpt lat="45.69207" lon="6.03935">
        <ele>1331.4000244141</ele>
        <time>2014-02-08T10:38:32.000Z</time>
      </trkpt>
      <trkpt lat="45.69196" lon="6.03928">
        <ele>1331.4000244141</ele>
        <time>2014-02-08T10:38:37.000Z</time>
      </trkpt>
      <trkpt lat="45.69194" lon="6.03926">
        <ele>1331.4000244141</ele>
        <time>2014-02-08T10:38:38.000Z</time>
      </trkpt>
      <trkpt lat="45.69179" lon="6.03918">
        <ele>1331.4000244141</ele>
        <time>2014-02-08T10:38:44.000Z</time>
      </trkpt>
      <trkpt lat="45.6916" lon="6.03907">
        <ele>1331.5999755859</ele>
        <time>2014-02-08T10:38:50.000Z</time>
      </trkpt>
      <trkpt lat="45.69146" lon="6.03891">
        <ele>1332</ele>
        <time>2014-02-08T10:38:55.000Z</time>
      </trkpt>
      <trkpt lat="45.69132" lon="6.03874">
        <ele>1332.4000244141</ele>
        <time>2014-02-08T10:39:00.000Z</time>
      </trkpt>
      <trkpt lat="45.69118" lon="6.03864">
        <ele>1332</ele>
        <time>2014-02-08T10:39:04.000Z</time>
      </trkpt>
      <trkpt lat="45.69104" lon="6.03863">
        <ele>1330.8000488281</ele>
        <time>2014-02-08T10:39:08.000Z</time>
      </trkpt>
      <trkpt lat="45.69093" lon="6.03861">
        <ele>1329.8000488281</ele>
        <time>2014-02-08T10:39:11.000Z</time>
      </trkpt>
      <trkpt lat="45.69075" lon="6.0386">
        <ele>1329.4000244141</ele>
        <time>2014-02-08T10:39:15.000Z</time>
      </trkpt>
      <trkpt lat="45.69067" lon="6.03857">
        <ele>1329.8000488281</ele>
        <time>2014-02-08T10:39:17.000Z</time>
      </trkpt>
      <trkpt lat="45.69057" lon="6.03844">
        <ele>1330.8000488281</ele>
        <time>2014-02-08T10:39:21.000Z</time>
      </trkpt>
      <trkpt lat="45.6905" lon="6.03833">
        <ele>1331.4000244141</ele>
        <time>2014-02-08T10:39:24.000Z</time>
      </trkpt>
      <trkpt lat="45.69045" lon="6.03822">
        <ele>1332.4000244141</ele>
        <time>2014-02-08T10:39:27.000Z</time>
      </trkpt>
      <trkpt lat="45.69037" lon="6.03799">
        <ele>1334</ele>
        <time>2014-02-08T10:39:33.000Z</time>
      </trkpt>
      <trkpt lat="45.69033" lon="6.03784">
        <ele>1335</ele>
        <time>2014-02-08T10:39:37.000Z</time>
      </trkpt>
      <trkpt lat="45.69031" lon="6.03762">
        <ele>1336.1999511719</ele>
        <time>2014-02-08T10:39:42.000Z</time>
      </trkpt>
      <trkpt lat="45.69028" lon="6.03745">
        <ele>1337</ele>
        <time>2014-02-08T10:39:46.000Z</time>
      </trkpt>
      <trkpt lat="45.69023" lon="6.03733">
        <ele>1337</ele>
        <time>2014-02-08T10:39:50.000Z</time>
      </trkpt>
      <trkpt lat="45.69016" lon="6.03724">
        <ele>1336.5999755859</ele>
        <time>2014-02-08T10:39:53.000Z</time>
      </trkpt>
      <trkpt lat="45.69011" lon="6.03707">
        <ele>1336.4000244141</ele>
        <time>2014-02-08T10:39:57.000Z</time>
      </trkpt>
      <trkpt lat="45.69005" lon="6.03692">
        <ele>1335.5999755859</ele>
        <time>2014-02-08T10:40:01.000Z</time>
      </trkpt>
      <trkpt lat="45.69005" lon="6.03681">
        <ele>1335.8000488281</ele>
        <time>2014-02-08T10:40:04.000Z</time>
      </trkpt>
      <trkpt lat="45.68994" lon="6.0366">
        <ele>1335.4000244141</ele>
        <time>2014-02-08T10:40:11.000Z</time>
      </trkpt>
      <trkpt lat="45.68984" lon="6.03651">
        <ele>1335.4000244141</ele>
        <time>2014-02-08T10:40:15.000Z</time>
      </trkpt>
      <trkpt lat="45.68973" lon="6.03644">
        <ele>1335</ele>
        <time>2014-02-08T10:40:19.000Z</time>
      </trkpt>
      <trkpt lat="45.68963" lon="6.03649">
        <ele>1333.5999755859</ele>
        <time>2014-02-08T10:40:24.000Z</time>
      </trkpt>
      <trkpt lat="45.68959" lon="6.03652">
        <ele>1333.1999511719</ele>
        <time>2014-02-08T10:40:26.000Z</time>
      </trkpt>
      <trkpt lat="45.68949" lon="6.03662">
        <ele>1332</ele>
        <time>2014-02-08T10:40:30.000Z</time>
      </trkpt>
      <trkpt lat="45.68936" lon="6.03669">
        <ele>1331.1999511719</ele>
        <time>2014-02-08T10:40:34.000Z</time>
      </trkpt>
      <trkpt lat="45.68916" lon="6.03679">
        <ele>1331</ele>
        <time>2014-02-08T10:40:39.000Z</time>
      </trkpt>
      <trkpt lat="45.68903" lon="6.03683">
        <ele>1331.4000244141</ele>
        <time>2014-02-08T10:40:42.000Z</time>
      </trkpt>
      <trkpt lat="45.68882" lon="6.0368">
        <ele>1331.1999511719</ele>
        <time>2014-02-08T10:40:46.000Z</time>
      </trkpt>
      <trkpt lat="45.68878" lon="6.03679">
        <ele>1331</ele>
        <time>2014-02-08T10:40:47.000Z</time>
      </trkpt>
      <trkpt lat="45.68864" lon="6.03672">
        <ele>1330.8000488281</ele>
        <time>2014-02-08T10:40:50.000Z</time>
      </trkpt>
      <trkpt lat="45.68853" lon="6.03654">
        <ele>1330.4000244141</ele>
        <time>2014-02-08T10:40:54.000Z</time>
      </trkpt>
      <trkpt lat="45.68851" lon="6.0365">
        <ele>1330.1999511719</ele>
        <time>2014-02-08T10:40:55.000Z</time>
      </trkpt>
      <trkpt lat="45.68843" lon="6.03638">
        <ele>1329.8000488281</ele>
        <time>2014-02-08T10:40:58.000Z</time>
      </trkpt>
      <trkpt lat="45.68833" lon="6.03624">
        <ele>1329.4000244141</ele>
        <time>2014-02-08T10:41:02.000Z</time>
      </trkpt>
      <trkpt lat="45.68831" lon="6.036">
        <ele>1328.8000488281</ele>
        <time>2014-02-08T10:41:07.000Z</time>
      </trkpt>
      <trkpt lat="45.68833" lon="6.03583">
        <ele>1328</ele>
        <time>2014-02-08T10:41:11.000Z</time>
      </trkpt>
      <trkpt lat="45.68833" lon="6.03564">
        <ele>1328.4000244141</ele>
        <time>2014-02-08T10:41:15.000Z</time>
      </trkpt>
      <trkpt lat="45.68834" lon="6.03545">
        <ele>1329</ele>
        <time>2014-02-08T10:41:19.000Z</time>
      </trkpt>
      <trkpt lat="45.68832" lon="6.03525">
        <ele>1329.5999755859</ele>
        <time>2014-02-08T10:41:23.000Z</time>
      </trkpt>
      <trkpt lat="45.68834" lon="6.03508">
        <ele>1329.8000488281</ele>
        <time>2014-02-08T10:41:26.000Z</time>
      </trkpt>
      <trkpt lat="45.68835" lon="6.03488">
        <ele>1329</ele>
        <time>2014-02-08T10:41:30.000Z</time>
      </trkpt>
      <trkpt lat="45.68832" lon="6.03467">
        <ele>1327.4000244141</ele>
        <time>2014-02-08T10:41:35.000Z</time>
      </trkpt>
      <trkpt lat="45.68825" lon="6.03454">
        <ele>1327.1999511719</ele>
        <time>2014-02-08T10:41:39.000Z</time>
      </trkpt>
      <trkpt lat="45.68817" lon="6.03441">
        <ele>1327.4000244141</ele>
        <time>2014-02-08T10:41:44.000Z</time>
      </trkpt>
      <trkpt lat="45.6881" lon="6.0343">
        <ele>1327.4000244141</ele>
        <time>2014-02-08T10:41:48.000Z</time>
      </trkpt>
      <trkpt lat="45.68803" lon="6.03419">
        <ele>1327.5999755859</ele>
        <time>2014-02-08T10:41:52.000Z</time>
      </trkpt>
      <trkpt lat="45.68796" lon="6.03412">
        <ele>1328</ele>
        <time>2014-02-08T10:41:55.000Z</time>
      </trkpt>
      <trkpt lat="45.6879" lon="6.03406">
        <ele>1328.4000244141</ele>
        <time>2014-02-08T10:41:58.000Z</time>
      </trkpt>
      <trkpt lat="45.68782" lon="6.03394">
        <ele>1328.8000488281</ele>
        <time>2014-02-08T10:42:02.000Z</time>
      </trkpt>
      <trkpt lat="45.68773" lon="6.03383">
        <ele>1329.1999511719</ele>
        <time>2014-02-08T10:42:06.000Z</time>
      </trkpt>
      <trkpt lat="45.68765" lon="6.03375">
        <ele>1329.8000488281</ele>
        <time>2014-02-08T10:42:09.000Z</time>
      </trkpt>
      <trkpt lat="45.68757" lon="6.03366">
        <ele>1330.1999511719</ele>
        <time>2014-02-08T10:42:13.000Z</time>
      </trkpt>
      <trkpt lat="45.68751" lon="6.03357">
        <ele>1330.5999755859</ele>
        <time>2014-02-08T10:42:17.000Z</time>
      </trkpt>
      <trkpt lat="45.68742" lon="6.0335">
        <ele>1331.4000244141</ele>
        <time>2014-02-08T10:42:21.000Z</time>
      </trkpt>
      <trkpt lat="45.68732" lon="6.03342">
        <ele>1332.4000244141</ele>
        <time>2014-02-08T10:42:26.000Z</time>
      </trkpt>
      <trkpt lat="45.68723" lon="6.03334">
        <ele>1333.1999511719</ele>
        <time>2014-02-08T10:42:31.000Z</time>
      </trkpt>
      <trkpt lat="45.68712" lon="6.03324">
        <ele>1334.5999755859</ele>
        <time>2014-02-08T10:42:36.000Z</time>
      </trkpt>
      <trkpt lat="45.68707" lon="6.03317">
        <ele>1335.1999511719</ele>
        <time>2014-02-08T10:42:40.000Z</time>
      </trkpt>
      <trkpt lat="45.68704" lon="6.03312">
        <ele>1335.4000244141</ele>
        <time>2014-02-08T10:42:42.000Z</time>
      </trkpt>
      <trkpt lat="45.68696" lon="6.03299">
        <ele>1336</ele>
        <time>2014-02-08T10:42:48.000Z</time>
      </trkpt>
      <trkpt lat="45.68697" lon="6.03293">
        <ele>1335.5999755859</ele>
        <time>2014-02-08T10:42:51.000Z</time>
      </trkpt>
      <trkpt lat="45.68703" lon="6.03294">
        <ele>1334.8000488281</ele>
        <time>2014-02-08T10:42:54.000Z</time>
      </trkpt>
      <trkpt lat="45.68711" lon="6.03293">
        <ele>1333.5999755859</ele>
        <time>2014-02-08T10:42:58.000Z</time>
      </trkpt>
      <trkpt lat="45.68719" lon="6.03283">
        <ele>1332.4000244141</ele>
        <time>2014-02-08T10:43:02.000Z</time>
      </trkpt>
      <trkpt lat="45.68735" lon="6.03275">
        <ele>1330.1999511719</ele>
        <time>2014-02-08T10:43:08.000Z</time>
      </trkpt>
      <trkpt lat="45.68748" lon="6.03275">
        <ele>1328.5999755859</ele>
        <time>2014-02-08T10:43:14.000Z</time>
      </trkpt>
      <trkpt lat="45.68761" lon="6.03275">
        <ele>1327.1999511719</ele>
        <time>2014-02-08T10:43:19.000Z</time>
      </trkpt>
      <trkpt lat="45.68764" lon="6.03274">
        <ele>1326.8000488281</ele>
        <time>2014-02-08T10:43:20.000Z</time>
      </trkpt>
      <trkpt lat="45.68767" lon="6.03284">
        <ele>1326.5999755859</ele>
        <time>2014-02-08T10:43:24.000Z</time>
      </trkpt>
      <trkpt lat="45.68766" lon="6.03286">
        <ele>1326.5999755859</ele>
        <time>2014-02-08T10:43:25.000Z</time>
      </trkpt>
      <trkpt lat="45.68759" lon="6.03315">
        <ele>1327.5999755859</ele>
        <time>2014-02-08T10:43:32.000Z</time>
      </trkpt>
      <trkpt lat="45.68755" lon="6.0333">
        <ele>1328.1999511719</ele>
        <time>2014-02-08T10:43:37.000Z</time>
      </trkpt>
      <trkpt lat="45.68752" lon="6.03339">
        <ele>1329</ele>
        <time>2014-02-08T10:43:43.000Z</time>
      </trkpt>
      <trkpt lat="45.68752" lon="6.03339">
        <ele>1329.1999511719</ele>
        <time>2014-02-08T10:43:53.000Z</time>
      </trkpt>
      <trkpt lat="45.68754" lon="6.03337">
        <ele>1328.5999755859</ele>
        <time>2014-02-08T10:43:59.000Z</time>
      </trkpt>
      <trkpt lat="45.68755" lon="6.03335">
        <ele>1328.4000244141</ele>
        <time>2014-02-08T10:44:05.000Z</time>
      </trkpt>
      <trkpt lat="45.68755" lon="6.03331">
        <ele>1328.1999511719</ele>
        <time>2014-02-08T10:44:10.000Z</time>
      </trkpt>
      <trkpt lat="45.68756" lon="6.03325">
        <ele>1328</ele>
        <time>2014-02-08T10:44:17.000Z</time>
      </trkpt>
      <trkpt lat="45.68758" lon="6.03316">
        <ele>1327.8000488281</ele>
        <time>2014-02-08T10:44:24.000Z</time>
      </trkpt>
      <trkpt lat="45.68757" lon="6.03316">
        <ele>1327.8000488281</ele>
        <time>2014-02-08T10:44:34.000Z</time>
      </trkpt>
      <trkpt lat="45.68759" lon="6.03318">
        <ele>1327.5999755859</ele>
        <time>2014-02-08T10:44:40.000Z</time>
      </trkpt>
      <trkpt lat="45.68753" lon="6.03328">
        <ele>1328.5999755859</ele>
        <time>2014-02-08T10:44:45.000Z</time>
      </trkpt>
      <trkpt lat="45.68752" lon="6.03328">
        <ele>1328.5999755859</ele>
        <time>2014-02-08T10:44:46.000Z</time>
      </trkpt>
      <trkpt lat="45.6875" lon="6.03329">
        <ele>1329</ele>
        <time>2014-02-08T10:44:53.000Z</time>
      </trkpt>
      <trkpt lat="45.68749" lon="6.03328">
        <ele>1329</ele>
        <time>2014-02-08T10:44:59.000Z</time>
      </trkpt>
      <trkpt lat="45.68748" lon="6.03327">
        <ele>1329.1999511719</ele>
        <time>2014-02-08T10:45:06.000Z</time>
      </trkpt>
      <trkpt lat="45.68744" lon="6.03329">
        <ele>1329.8000488281</ele>
        <time>2014-02-08T10:45:12.000Z</time>
      </trkpt>
      <trkpt lat="45.68746" lon="6.03329">
        <ele>1329.5999755859</ele>
        <time>2014-02-08T10:45:21.000Z</time>
      </trkpt>
      <trkpt lat="45.68748" lon="6.03327">
        <ele>1329.1999511719</ele>
        <time>2014-02-08T10:45:32.000Z</time>
      </trkpt>
      <trkpt lat="45.68721" lon="6.03321">
        <ele>1333.1999511719</ele>
        <time>2014-02-08T10:47:13.000Z</time>
      </trkpt>
      <trkpt lat="45.68721" lon="6.03321">
        <ele>1333.1999511719</ele>
        <time>2014-02-08T10:47:14.000Z</time>
      </trkpt>
      <trkpt lat="45.68718" lon="6.03318">
        <ele>1333.4000244141</ele>
        <time>2014-02-08T10:47:23.000Z</time>
      </trkpt>
      <trkpt lat="45.68713" lon="6.03311">
        <ele>1334</ele>
        <time>2014-02-08T10:47:27.000Z</time>
      </trkpt>
      <trkpt lat="45.68704" lon="6.03305">
        <ele>1335.1999511719</ele>
        <time>2014-02-08T10:47:31.000Z</time>
      </trkpt>
      <trkpt lat="45.687" lon="6.03302">
        <ele>1335.5999755859</ele>
        <time>2014-02-08T10:47:33.000Z</time>
      </trkpt>
      <trkpt lat="45.68688" lon="6.03293">
        <ele>1336.8000488281</ele>
        <time>2014-02-08T10:47:38.000Z</time>
      </trkpt>
      <trkpt lat="45.68678" lon="6.03286">
        <ele>1337.8000488281</ele>
        <time>2014-02-08T10:47:42.000Z</time>
      </trkpt>
      <trkpt lat="45.68667" lon="6.03279">
        <ele>1338.8000488281</ele>
        <time>2014-02-08T10:47:46.000Z</time>
      </trkpt>
      <trkpt lat="45.68655" lon="6.03267">
        <ele>1338.1999511719</ele>
        <time>2014-02-08T10:47:51.000Z</time>
      </trkpt>
      <trkpt lat="45.68646" lon="6.03253">
        <ele>1337.5999755859</ele>
        <time>2014-02-08T10:47:55.000Z</time>
      </trkpt>
      <trkpt lat="45.68634" lon="6.03246">
        <ele>1337.5999755859</ele>
        <time>2014-02-08T10:47:59.000Z</time>
      </trkpt>
      <trkpt lat="45.6862" lon="6.03247">
        <ele>1338</ele>
        <time>2014-02-08T10:48:03.000Z</time>
      </trkpt>
      <trkpt lat="45.68604" lon="6.0325">
        <ele>1338.5999755859</ele>
        <time>2014-02-08T10:48:08.000Z</time>
      </trkpt>
      <trkpt lat="45.68584" lon="6.03249">
        <ele>1339</ele>
        <time>2014-02-08T10:48:13.000Z</time>
      </trkpt>
      <trkpt lat="45.68568" lon="6.03249">
        <ele>1337.8000488281</ele>
        <time>2014-02-08T10:48:17.000Z</time>
      </trkpt>
      <trkpt lat="45.68542" lon="6.03246">
        <ele>1336</ele>
        <time>2014-02-08T10:48:22.000Z</time>
      </trkpt>
      <trkpt lat="45.68524" lon="6.03249">
        <ele>1334.8000488281</ele>
        <time>2014-02-08T10:48:26.000Z</time>
      </trkpt>
      <trkpt lat="45.68491" lon="6.03252">
        <ele>1333.4000244141</ele>
        <time>2014-02-08T10:48:34.000Z</time>
      </trkpt>
      <trkpt lat="45.68487" lon="6.03252">
        <ele>1333.4000244141</ele>
        <time>2014-02-08T10:48:35.000Z</time>
      </trkpt>
      <trkpt lat="45.68475" lon="6.03249">
        <ele>1334</ele>
        <time>2014-02-08T10:48:40.000Z</time>
      </trkpt>
      <trkpt lat="45.68473" lon="6.03254">
        <ele>1334</ele>
        <time>2014-02-08T10:48:44.000Z</time>
      </trkpt>
      <trkpt lat="45.68474" lon="6.03254">
        <ele>1333.8000488281</ele>
        <time>2014-02-08T10:48:53.000Z</time>
      </trkpt>
      <trkpt lat="45.68481" lon="6.03249">
        <ele>1333.8000488281</ele>
        <time>2014-02-08T10:48:57.000Z</time>
      </trkpt>
      <trkpt lat="45.68493" lon="6.03248">
        <ele>1333.4000244141</ele>
        <time>2014-02-08T10:49:01.000Z</time>
      </trkpt>
      <trkpt lat="45.68502" lon="6.03247">
        <ele>1333.1999511719</ele>
        <time>2014-02-08T10:49:04.000Z</time>
      </trkpt>
      <trkpt lat="45.68504" lon="6.03247">
        <ele>1333.4000244141</ele>
        <time>2014-02-08T10:49:05.000Z</time>
      </trkpt>
      <trkpt lat="45.68514" lon="6.03252">
        <ele>1334</ele>
        <time>2014-02-08T10:49:10.000Z</time>
      </trkpt>
      <trkpt lat="45.68768" lon="6.03216">
        <ele>1324.1999511719</ele>
        <time>2014-02-08T10:52:42.000Z</time>
      </trkpt>
      <trkpt lat="45.68768" lon="6.03216">
        <ele>1324.1999511719</ele>
        <time>2014-02-08T10:52:43.000Z</time>
      </trkpt>
      <trkpt lat="45.68762" lon="6.03211">
        <ele>1324.1999511719</ele>
        <time>2014-02-08T10:53:07.000Z</time>
      </trkpt>
      <trkpt lat="45.68748" lon="6.03204">
        <ele>1324.4000244141</ele>
        <time>2014-02-08T10:53:11.000Z</time>
      </trkpt>
      <trkpt lat="45.68733" lon="6.03192">
        <ele>1324.8000488281</ele>
        <time>2014-02-08T10:53:14.000Z</time>
      </trkpt>
      <trkpt lat="45.68721" lon="6.03183">
        <ele>1325.1999511719</ele>
        <time>2014-02-08T10:53:16.000Z</time>
      </trkpt>
      <trkpt lat="45.68666" lon="6.0315">
        <ele>1326.5999755859</ele>
        <time>2014-02-08T10:53:25.000Z</time>
      </trkpt>
      <trkpt lat="45.68644" lon="6.03134">
        <ele>1326</ele>
        <time>2014-02-08T10:53:29.000Z</time>
      </trkpt>
      <trkpt lat="45.68628" lon="6.03122">
        <ele>1325.4000244141</ele>
        <time>2014-02-08T10:53:33.000Z</time>
      </trkpt>
      <trkpt lat="45.6862" lon="6.03108">
        <ele>1323.8000488281</ele>
        <time>2014-02-08T10:53:36.000Z</time>
      </trkpt>
      <trkpt lat="45.6861" lon="6.0309">
        <ele>1322</ele>
        <time>2014-02-08T10:53:40.000Z</time>
      </trkpt>
      <trkpt lat="45.68606" lon="6.03069">
        <ele>1321</ele>
        <time>2014-02-08T10:53:44.000Z</time>
      </trkpt>
      <trkpt lat="45.68605" lon="6.03063">
        <ele>1320.8000488281</ele>
        <time>2014-02-08T10:53:45.000Z</time>
      </trkpt>
      <trkpt lat="45.68598" lon="6.03037">
        <ele>1320.4000244141</ele>
        <time>2014-02-08T10:53:50.000Z</time>
      </trkpt>
      <trkpt lat="45.68592" lon="6.03018">
        <ele>1320.1999511719</ele>
        <time>2014-02-08T10:53:54.000Z</time>
      </trkpt>
      <trkpt lat="45.68589" lon="6.03005">
        <ele>1319.8000488281</ele>
        <time>2014-02-08T10:53:57.000Z</time>
      </trkpt>
      <trkpt lat="45.68586" lon="6.02988">
        <ele>1320</ele>
        <time>2014-02-08T10:54:01.000Z</time>
      </trkpt>
      <trkpt lat="45.68583" lon="6.02977">
        <ele>1320.4000244141</ele>
        <time>2014-02-08T10:54:04.000Z</time>
      </trkpt>
      <trkpt lat="45.6858" lon="6.0296">
        <ele>1321.1999511719</ele>
        <time>2014-02-08T10:54:08.000Z</time>
      </trkpt>
      <trkpt lat="45.68577" lon="6.02942">
        <ele>1322</ele>
        <time>2014-02-08T10:54:12.000Z</time>
      </trkpt>
      <trkpt lat="45.68576" lon="6.02923">
        <ele>1322.4000244141</ele>
        <time>2014-02-08T10:54:17.000Z</time>
      </trkpt>
      <trkpt lat="45.68575" lon="6.02899">
        <ele>1322.8000488281</ele>
        <time>2014-02-08T10:54:23.000Z</time>
      </trkpt>
      <trkpt lat="45.68574" lon="6.02895">
        <ele>1323</ele>
        <time>2014-02-08T10:54:26.000Z</time>
      </trkpt>
      <trkpt lat="45.68574" lon="6.0288">
        <ele>1323.1999511719</ele>
        <time>2014-02-08T10:54:28.000Z</time>
      </trkpt>
      <trkpt lat="45.68573" lon="6.02863">
        <ele>1323.5999755859</ele>
        <time>2014-02-08T10:54:32.000Z</time>
      </trkpt>
      <trkpt lat="45.68573" lon="6.02846">
        <ele>1323.8000488281</ele>
        <time>2014-02-08T10:54:36.000Z</time>
      </trkpt>
      <trkpt lat="45.68574" lon="6.02829">
        <ele>1324.1999511719</ele>
        <time>2014-02-08T10:54:40.000Z</time>
      </trkpt>
      <trkpt lat="45.68576" lon="6.02813">
        <ele>1325.1999511719</ele>
        <time>2014-02-08T10:54:44.000Z</time>
      </trkpt>
      <trkpt lat="45.68579" lon="6.02799">
        <ele>1325.8000488281</ele>
        <time>2014-02-08T10:54:48.000Z</time>
      </trkpt>
      <trkpt lat="45.68581" lon="6.02788">
        <ele>1326.1999511719</ele>
        <time>2014-02-08T10:54:52.000Z</time>
      </trkpt>
      <trkpt lat="45.68584" lon="6.02777">
        <ele>1326.5999755859</ele>
        <time>2014-02-08T10:54:56.000Z</time>
      </trkpt>
      <trkpt lat="45.68586" lon="6.02764">
        <ele>1327.8000488281</ele>
        <time>2014-02-08T10:55:01.000Z</time>
      </trkpt>
      <trkpt lat="45.68588" lon="6.02758">
        <ele>1328.1999511719</ele>
        <time>2014-02-08T10:55:03.000Z</time>
      </trkpt>
      <trkpt lat="45.6859" lon="6.02747">
        <ele>1329</ele>
        <time>2014-02-08T10:55:08.000Z</time>
      </trkpt>
      <trkpt lat="45.6859" lon="6.02742">
        <ele>1329.1999511719</ele>
        <time>2014-02-08T10:55:10.000Z</time>
      </trkpt>
      <trkpt lat="45.6859" lon="6.02729">
        <ele>1329.8000488281</ele>
        <time>2014-02-08T10:55:15.000Z</time>
      </trkpt>
      <trkpt lat="45.68589" lon="6.02712">
        <ele>1330.5999755859</ele>
        <time>2014-02-08T10:55:20.000Z</time>
      </trkpt>
      <trkpt lat="45.6859" lon="6.02709">
        <ele>1330.8000488281</ele>
        <time>2014-02-08T10:55:21.000Z</time>
      </trkpt>
      <trkpt lat="45.68589" lon="6.02696">
        <ele>1331.4000244141</ele>
        <time>2014-02-08T10:55:25.000Z</time>
      </trkpt>
      <trkpt lat="45.6859" lon="6.02687">
        <ele>1331.8000488281</ele>
        <time>2014-02-08T10:55:28.000Z</time>
      </trkpt>
      <trkpt lat="45.68591" lon="6.02678">
        <ele>1332.1999511719</ele>
        <time>2014-02-08T10:55:31.000Z</time>
      </trkpt>
      <trkpt lat="45.68594" lon="6.02665">
        <ele>1332.8000488281</ele>
        <time>2014-02-08T10:55:36.000Z</time>
      </trkpt>
      <trkpt lat="45.68596" lon="6.02656">
        <ele>1333</ele>
        <time>2014-02-08T10:55:40.000Z</time>
      </trkpt>
      <trkpt lat="45.68597" lon="6.02654">
        <ele>1333</ele>
        <time>2014-02-08T10:55:41.000Z</time>
      </trkpt>
      <trkpt lat="45.68599" lon="6.02638">
        <ele>1333.5999755859</ele>
        <time>2014-02-08T10:55:47.000Z</time>
      </trkpt>
      <trkpt lat="45.686" lon="6.02621">
        <ele>1334.1999511719</ele>
        <time>2014-02-08T10:55:52.000Z</time>
      </trkpt>
      <trkpt lat="45.68599" lon="6.02612">
        <ele>1334.4000244141</ele>
        <time>2014-02-08T10:55:55.000Z</time>
      </trkpt>
      <trkpt lat="45.68592" lon="6.02595">
        <ele>1334.8000488281</ele>
        <time>2014-02-08T10:56:00.000Z</time>
      </trkpt>
      <trkpt lat="45.68587" lon="6.0258">
        <ele>1335.1999511719</ele>
        <time>2014-02-08T10:56:04.000Z</time>
      </trkpt>
      <trkpt lat="45.68584" lon="6.02565">
        <ele>1335.5999755859</ele>
        <time>2014-02-08T10:56:08.000Z</time>
      </trkpt>
      <trkpt lat="45.68583" lon="6.02561">
        <ele>1335.8000488281</ele>
        <time>2014-02-08T10:56:09.000Z</time>
      </trkpt>
      <trkpt lat="45.68577" lon="6.02544">
        <ele>1337.4000244141</ele>
        <time>2014-02-08T10:56:14.000Z</time>
      </trkpt>
      <trkpt lat="45.68571" lon="6.02528">
        <ele>1338.8000488281</ele>
        <time>2014-02-08T10:56:18.000Z</time>
      </trkpt>
      <trkpt lat="45.68566" lon="6.02511">
        <ele>1340</ele>
        <time>2014-02-08T10:56:22.000Z</time>
      </trkpt>
      <trkpt lat="45.68561" lon="6.02497">
        <ele>1340.5999755859</ele>
        <time>2014-02-08T10:56:26.000Z</time>
      </trkpt>
      <trkpt lat="45.68557" lon="6.02484">
        <ele>1340.8000488281</ele>
        <time>2014-02-08T10:56:31.000Z</time>
      </trkpt>
      <trkpt lat="45.68548" lon="6.02472">
        <ele>1341.1999511719</ele>
        <time>2014-02-08T10:56:36.000Z</time>
      </trkpt>
      <trkpt lat="45.68535" lon="6.02463">
        <ele>1341.5999755859</ele>
        <time>2014-02-08T10:56:41.000Z</time>
      </trkpt>
      <trkpt lat="45.68526" lon="6.02456">
        <ele>1341.5999755859</ele>
        <time>2014-02-08T10:56:45.000Z</time>
      </trkpt>
      <trkpt lat="45.68517" lon="6.02451">
        <ele>1341.5999755859</ele>
        <time>2014-02-08T10:56:49.000Z</time>
      </trkpt>
      <trkpt lat="45.6851" lon="6.02445">
        <ele>1341.1999511719</ele>
        <time>2014-02-08T10:56:52.000Z</time>
      </trkpt>
      <trkpt lat="45.68503" lon="6.02439">
        <ele>1340.5999755859</ele>
        <time>2014-02-08T10:56:55.000Z</time>
      </trkpt>
      <trkpt lat="45.68499" lon="6.02434">
        <ele>1340.1999511719</ele>
        <time>2014-02-08T10:56:58.000Z</time>
      </trkpt>
      <trkpt lat="45.68492" lon="6.02428">
        <ele>1340</ele>
        <time>2014-02-08T10:57:02.000Z</time>
      </trkpt>
      <trkpt lat="45.68491" lon="6.02426">
        <ele>1340</ele>
        <time>2014-02-08T10:57:03.000Z</time>
      </trkpt>
      <trkpt lat="45.68479" lon="6.02417">
        <ele>1339.8000488281</ele>
        <time>2014-02-08T10:57:08.000Z</time>
      </trkpt>
      <trkpt lat="45.68466" lon="6.02408">
        <ele>1340</ele>
        <time>2014-02-08T10:57:12.000Z</time>
      </trkpt>
      <trkpt lat="45.68452" lon="6.02396">
        <ele>1339.8000488281</ele>
        <time>2014-02-08T10:57:16.000Z</time>
      </trkpt>
      <trkpt lat="45.68434" lon="6.02378">
        <ele>1338.5999755859</ele>
        <time>2014-02-08T10:57:21.000Z</time>
      </trkpt>
      <trkpt lat="45.6841" lon="6.02348">
        <ele>1336</ele>
        <time>2014-02-08T10:57:29.000Z</time>
      </trkpt>
      <trkpt lat="45.68397" lon="6.02334">
        <ele>1335.4000244141</ele>
        <time>2014-02-08T10:57:33.000Z</time>
      </trkpt>
      <trkpt lat="45.68386" lon="6.02322">
        <ele>1335.1999511719</ele>
        <time>2014-02-08T10:57:36.000Z</time>
      </trkpt>
      <trkpt lat="45.68376" lon="6.02317">
        <ele>1335.8000488281</ele>
        <time>2014-02-08T10:57:38.000Z</time>
      </trkpt>
      <trkpt lat="45.68363" lon="6.02302">
        <ele>1335.5999755859</ele>
        <time>2014-02-08T10:57:42.000Z</time>
      </trkpt>
      <trkpt lat="45.68338" lon="6.02276">
        <ele>1335</ele>
        <time>2014-02-08T10:57:49.000Z</time>
      </trkpt>
      <trkpt lat="45.68323" lon="6.02265">
        <ele>1336.4000244141</ele>
        <time>2014-02-08T10:57:54.000Z</time>
      </trkpt>
      <trkpt lat="45.68308" lon="6.02263">
        <ele>1339.5999755859</ele>
        <time>2014-02-08T10:57:59.000Z</time>
      </trkpt>
      <trkpt lat="45.68299" lon="6.02267">
        <ele>1342.1999511719</ele>
        <time>2014-02-08T10:58:02.000Z</time>
      </trkpt>
      <trkpt lat="45.68293" lon="6.02272">
        <ele>1344.8000488281</ele>
        <time>2014-02-08T10:58:06.000Z</time>
      </trkpt>
      <trkpt lat="45.68288" lon="6.02272">
        <ele>1345.8000488281</ele>
        <time>2014-02-08T10:58:09.000Z</time>
      </trkpt>
      <trkpt lat="45.68282" lon="6.02269">
        <ele>1346.8000488281</ele>
        <time>2014-02-08T10:58:12.000Z</time>
      </trkpt>
      <trkpt lat="45.68278" lon="6.02266">
        <ele>1347.1999511719</ele>
        <time>2014-02-08T10:58:14.000Z</time>
      </trkpt>
      <trkpt lat="45.68275" lon="6.02262">
        <ele>1347</ele>
        <time>2014-02-08T10:58:16.000Z</time>
      </trkpt>
      <trkpt lat="45.68273" lon="6.02256">
        <ele>1346.1999511719</ele>
        <time>2014-02-08T10:58:19.000Z</time>
      </trkpt>
      <trkpt lat="45.68271" lon="6.02248">
        <ele>1345.1999511719</ele>
        <time>2014-02-08T10:58:23.000Z</time>
      </trkpt>
      <trkpt lat="45.68272" lon="6.02242">
        <ele>1344.5999755859</ele>
        <time>2014-02-08T10:58:26.000Z</time>
      </trkpt>
      <trkpt lat="45.68274" lon="6.0223">
        <ele>1343.1999511719</ele>
        <time>2014-02-08T10:58:31.000Z</time>
      </trkpt>
      <trkpt lat="45.68275" lon="6.02222">
        <ele>1342.4000244141</ele>
        <time>2014-02-08T10:58:35.000Z</time>
      </trkpt>
      <trkpt lat="45.68275" lon="6.0221">
        <ele>1341.1999511719</ele>
        <time>2014-02-08T10:58:40.000Z</time>
      </trkpt>
      <trkpt lat="45.68277" lon="6.02195">
        <ele>1339.5999755859</ele>
        <time>2014-02-08T10:58:45.000Z</time>
      </trkpt>
      <trkpt lat="45.68277" lon="6.0219">
        <ele>1339.1999511719</ele>
        <time>2014-02-08T10:58:46.000Z</time>
      </trkpt>
      <trkpt lat="45.68278" lon="6.02177">
        <ele>1337.8000488281</ele>
        <time>2014-02-08T10:58:51.000Z</time>
      </trkpt>
      <trkpt lat="45.68278" lon="6.02168">
        <ele>1337</ele>
        <time>2014-02-08T10:58:55.000Z</time>
      </trkpt>
      <trkpt lat="45.68277" lon="6.02159">
        <ele>1337.4000244141</ele>
        <time>2014-02-08T10:59:00.000Z</time>
      </trkpt>
      <trkpt lat="45.68276" lon="6.02157">
        <ele>1337.4000244141</ele>
        <time>2014-02-08T10:59:01.000Z</time>
      </trkpt>
      <trkpt lat="45.68276" lon="6.02146">
        <ele>1337.5999755859</ele>
        <time>2014-02-08T10:59:07.000Z</time>
      </trkpt>
      <trkpt lat="45.68274" lon="6.02136">
        <ele>1338.1999511719</ele>
        <time>2014-02-08T10:59:13.000Z</time>
      </trkpt>
      <trkpt lat="45.68272" lon="6.02126">
        <ele>1338.5999755859</ele>
        <time>2014-02-08T10:59:17.000Z</time>
      </trkpt>
      <trkpt lat="45.68271" lon="6.02114">
        <ele>1339</ele>
        <time>2014-02-08T10:59:22.000Z</time>
      </trkpt>
      <trkpt lat="45.6827" lon="6.02112">
        <ele>1339.1999511719</ele>
        <time>2014-02-08T10:59:23.000Z</time>
      </trkpt>
      <trkpt lat="45.68265" lon="6.02094">
        <ele>1341</ele>
        <time>2014-02-08T10:59:29.000Z</time>
      </trkpt>
      <trkpt lat="45.6826" lon="6.02081">
        <ele>1342.1999511719</ele>
        <time>2014-02-08T10:59:33.000Z</time>
      </trkpt>
      <trkpt lat="45.68255" lon="6.02062">
        <ele>1344</ele>
        <time>2014-02-08T10:59:39.000Z</time>
      </trkpt>
      <trkpt lat="45.68249" lon="6.02048">
        <ele>1345.4000244141</ele>
        <time>2014-02-08T10:59:43.000Z</time>
      </trkpt>
      <trkpt lat="45.6824" lon="6.02025">
        <ele>1345.8000488281</ele>
        <time>2014-02-08T10:59:48.000Z</time>
      </trkpt>
      <trkpt lat="45.68241" lon="6.02004">
        <ele>1346</ele>
        <time>2014-02-08T10:59:53.000Z</time>
      </trkpt>
      <trkpt lat="45.68245" lon="6.01988">
        <ele>1345.8000488281</ele>
        <time>2014-02-08T10:59:57.000Z</time>
      </trkpt>
      <trkpt lat="45.6825" lon="6.01971">
        <ele>1345.4000244141</ele>
        <time>2014-02-08T11:00:01.000Z</time>
      </trkpt>
      <trkpt lat="45.68253" lon="6.01959">
        <ele>1344.1999511719</ele>
        <time>2014-02-08T11:00:04.000Z</time>
      </trkpt>
      <trkpt lat="45.68256" lon="6.01949">
        <ele>1342.8000488281</ele>
        <time>2014-02-08T11:00:07.000Z</time>
      </trkpt>
      <trkpt lat="45.6826" lon="6.01937">
        <ele>1341.4000244141</ele>
        <time>2014-02-08T11:00:11.000Z</time>
      </trkpt>
      <trkpt lat="45.68265" lon="6.0192">
        <ele>1339.8000488281</ele>
        <time>2014-02-08T11:00:15.000Z</time>
      </trkpt>
      <trkpt lat="45.68267" lon="6.01901">
        <ele>1339</ele>
        <time>2014-02-08T11:00:19.000Z</time>
      </trkpt>
      <trkpt lat="45.68263" lon="6.01888">
        <ele>1340</ele>
        <time>2014-02-08T11:00:23.000Z</time>
      </trkpt>
      <trkpt lat="45.68256" lon="6.01874">
        <ele>1341.4000244141</ele>
        <time>2014-02-08T11:00:27.000Z</time>
      </trkpt>
      <trkpt lat="45.68249" lon="6.01857">
        <ele>1342.5999755859</ele>
        <time>2014-02-08T11:00:32.000Z</time>
      </trkpt>
      <trkpt lat="45.68247" lon="6.01852">
        <ele>1342.4000244141</ele>
        <time>2014-02-08T11:00:33.000Z</time>
      </trkpt>
      <trkpt lat="45.68245" lon="6.0181">
        <ele>1341.1999511719</ele>
        <time>2014-02-08T11:00:38.000Z</time>
      </trkpt>
      <trkpt lat="45.68245" lon="6.01801">
        <ele>1340.8000488281</ele>
        <time>2014-02-08T11:00:39.000Z</time>
      </trkpt>
      <trkpt lat="45.68246" lon="6.01786">
        <ele>1340.4000244141</ele>
        <time>2014-02-08T11:00:41.000Z</time>
      </trkpt>
      <trkpt lat="45.68243" lon="6.01767">
        <ele>1339.8000488281</ele>
        <time>2014-02-08T11:00:45.000Z</time>
      </trkpt>
      <trkpt lat="45.68235" lon="6.01745">
        <ele>1339.1999511719</ele>
        <time>2014-02-08T11:00:49.000Z</time>
      </trkpt>
      <trkpt lat="45.6823" lon="6.01722">
        <ele>1338.4000244141</ele>
        <time>2014-02-08T11:00:54.000Z</time>
      </trkpt>
      <trkpt lat="45.68223" lon="6.01703">
        <ele>1338</ele>
        <time>2014-02-08T11:00:58.000Z</time>
      </trkpt>
      <trkpt lat="45.68213" lon="6.01685">
        <ele>1337.5999755859</ele>
        <time>2014-02-08T11:01:01.000Z</time>
      </trkpt>
      <trkpt lat="45.68209" lon="6.01679">
        <ele>1337.4000244141</ele>
        <time>2014-02-08T11:01:02.000Z</time>
      </trkpt>
      <trkpt lat="45.68178" lon="6.0165">
        <ele>1337.8000488281</ele>
        <time>2014-02-08T11:01:09.000Z</time>
      </trkpt>
      <trkpt lat="45.68161" lon="6.01642">
        <ele>1339.4000244141</ele>
        <time>2014-02-08T11:01:13.000Z</time>
      </trkpt>
      <trkpt lat="45.68152" lon="6.01639">
        <ele>1341.4000244141</ele>
        <time>2014-02-08T11:01:16.000Z</time>
      </trkpt>
      <trkpt lat="45.68144" lon="6.01637">
        <ele>1342.8000488281</ele>
        <time>2014-02-08T11:01:19.000Z</time>
      </trkpt>
      <trkpt lat="45.68132" lon="6.0164">
        <ele>1345.1999511719</ele>
        <time>2014-02-08T11:01:23.000Z</time>
      </trkpt>
      <trkpt lat="45.68126" lon="6.01649">
        <ele>1346</ele>
        <time>2014-02-08T11:01:26.000Z</time>
      </trkpt>
      <trkpt lat="45.68122" lon="6.01661">
        <ele>1346.1999511719</ele>
        <time>2014-02-08T11:01:29.000Z</time>
      </trkpt>
      <trkpt lat="45.68115" lon="6.01683">
        <ele>1347</ele>
        <time>2014-02-08T11:01:34.000Z</time>
      </trkpt>
      <trkpt lat="45.68109" lon="6.01695">
        <ele>1347.5999755859</ele>
        <time>2014-02-08T11:01:37.000Z</time>
      </trkpt>
      <trkpt lat="45.68105" lon="6.01702">
        <ele>1347.8000488281</ele>
        <time>2014-02-08T11:01:39.000Z</time>
      </trkpt>
      <trkpt lat="45.68098" lon="6.01711">
        <ele>1348.4000244141</ele>
        <time>2014-02-08T11:01:42.000Z</time>
      </trkpt>
      <trkpt lat="45.68092" lon="6.01722">
        <ele>1348.8000488281</ele>
        <time>2014-02-08T11:01:45.000Z</time>
      </trkpt>
      <trkpt lat="45.68088" lon="6.01733">
        <ele>1348.5999755859</ele>
        <time>2014-02-08T11:01:48.000Z</time>
      </trkpt>
      <trkpt lat="45.68083" lon="6.01745">
        <ele>1348.4000244141</ele>
        <time>2014-02-08T11:01:51.000Z</time>
      </trkpt>
      <trkpt lat="45.6808" lon="6.01754">
        <ele>1348.5999755859</ele>
        <time>2014-02-08T11:01:54.000Z</time>
      </trkpt>
      <trkpt lat="45.68074" lon="6.01762">
        <ele>1349.8000488281</ele>
        <time>2014-02-08T11:01:58.000Z</time>
      </trkpt>
      <trkpt lat="45.68067" lon="6.0176">
        <ele>1351.1999511719</ele>
        <time>2014-02-08T11:02:02.000Z</time>
      </trkpt>
      <trkpt lat="45.68063" lon="6.01756">
        <ele>1352</ele>
        <time>2014-02-08T11:02:06.000Z</time>
      </trkpt>
      <trkpt lat="45.68062" lon="6.01746">
        <ele>1352.5999755859</ele>
        <time>2014-02-08T11:02:10.000Z</time>
      </trkpt>
      <trkpt lat="45.68062" lon="6.01742">
        <ele>1353</ele>
        <time>2014-02-08T11:02:12.000Z</time>
      </trkpt>
      <trkpt lat="45.68061" lon="6.01733">
        <ele>1353.8000488281</ele>
        <time>2014-02-08T11:02:16.000Z</time>
      </trkpt>
      <trkpt lat="45.68063" lon="6.01712">
        <ele>1355</ele>
        <time>2014-02-08T11:02:23.000Z</time>
      </trkpt>
      <trkpt lat="45.68064" lon="6.01702">
        <ele>1355.1999511719</ele>
        <time>2014-02-08T11:02:27.000Z</time>
      </trkpt>
      <trkpt lat="45.68066" lon="6.01689">
        <ele>1355.8000488281</ele>
        <time>2014-02-08T11:02:32.000Z</time>
      </trkpt>
      <trkpt lat="45.68068" lon="6.01675">
        <ele>1356.4000244141</ele>
        <time>2014-02-08T11:02:37.000Z</time>
      </trkpt>
      <trkpt lat="45.68068" lon="6.0167">
        <ele>1356.8000488281</ele>
        <time>2014-02-08T11:02:39.000Z</time>
      </trkpt>
      <trkpt lat="45.68072" lon="6.01657">
        <ele>1356.5999755859</ele>
        <time>2014-02-08T11:02:44.000Z</time>
      </trkpt>
      <trkpt lat="45.68074" lon="6.01647">
        <ele>1356.8000488281</ele>
        <time>2014-02-08T11:02:48.000Z</time>
      </trkpt>
      <trkpt lat="45.68074" lon="6.01645">
        <ele>1356.8000488281</ele>
        <time>2014-02-08T11:02:49.000Z</time>
      </trkpt>
      <trkpt lat="45.68075" lon="6.01639">
        <ele>1357</ele>
        <time>2014-02-08T11:02:51.000Z</time>
      </trkpt>
      <trkpt lat="45.68075" lon="6.01632">
        <ele>1357.5999755859</ele>
        <time>2014-02-08T11:02:54.000Z</time>
      </trkpt>
      <trkpt lat="45.68073" lon="6.01624">
        <ele>1358.5999755859</ele>
        <time>2014-02-08T11:02:58.000Z</time>
      </trkpt>
      <trkpt lat="45.68072" lon="6.01619">
        <ele>1359.1999511719</ele>
        <time>2014-02-08T11:03:00.000Z</time>
      </trkpt>
      <trkpt lat="45.68071" lon="6.01612">
        <ele>1360</ele>
        <time>2014-02-08T11:03:03.000Z</time>
      </trkpt>
      <trkpt lat="45.68073" lon="6.01601">
        <ele>1360.4000244141</ele>
        <time>2014-02-08T11:03:08.000Z</time>
      </trkpt>
      <trkpt lat="45.68075" lon="6.01588">
        <ele>1360.8000488281</ele>
        <time>2014-02-08T11:03:11.000Z</time>
      </trkpt>
      <trkpt lat="45.68077" lon="6.01564">
        <ele>1361</ele>
        <time>2014-02-08T11:03:16.000Z</time>
      </trkpt>
      <trkpt lat="45.68077" lon="6.01549">
        <ele>1361.4000244141</ele>
        <time>2014-02-08T11:03:19.000Z</time>
      </trkpt>
      <trkpt lat="45.68076" lon="6.01529">
        <ele>1361.8000488281</ele>
        <time>2014-02-08T11:03:23.000Z</time>
      </trkpt>
      <trkpt lat="45.68075" lon="6.01508">
        <ele>1362.5999755859</ele>
        <time>2014-02-08T11:03:27.000Z</time>
      </trkpt>
      <trkpt lat="45.68075" lon="6.01492">
        <ele>1362.5999755859</ele>
        <time>2014-02-08T11:03:30.000Z</time>
      </trkpt>
      <trkpt lat="45.68076" lon="6.01478">
        <ele>1362</ele>
        <time>2014-02-08T11:03:33.000Z</time>
      </trkpt>
      <trkpt lat="45.68076" lon="6.01459">
        <ele>1361.4000244141</ele>
        <time>2014-02-08T11:03:37.000Z</time>
      </trkpt>
      <trkpt lat="45.68075" lon="6.01449">
        <ele>1361.1999511719</ele>
        <time>2014-02-08T11:03:39.000Z</time>
      </trkpt>
      <trkpt lat="45.68077" lon="6.0143">
        <ele>1360.4000244141</ele>
        <time>2014-02-08T11:03:43.000Z</time>
      </trkpt>
      <trkpt lat="45.68075" lon="6.01409">
        <ele>1360</ele>
        <time>2014-02-08T11:03:47.000Z</time>
      </trkpt>
      <trkpt lat="45.68075" lon="6.01382">
        <ele>1359.1999511719</ele>
        <time>2014-02-08T11:03:52.000Z</time>
      </trkpt>
      <trkpt lat="45.68072" lon="6.01364">
        <ele>1359</ele>
        <time>2014-02-08T11:03:56.000Z</time>
      </trkpt>
      <trkpt lat="45.68069" lon="6.01343">
        <ele>1358.5999755859</ele>
        <time>2014-02-08T11:04:00.000Z</time>
      </trkpt>
      <trkpt lat="45.68068" lon="6.01311">
        <ele>1357.8000488281</ele>
        <time>2014-02-08T11:04:05.000Z</time>
      </trkpt>
      <trkpt lat="45.68069" lon="6.01289">
        <ele>1357</ele>
        <time>2014-02-08T11:04:08.000Z</time>
      </trkpt>
      <trkpt lat="45.68071" lon="6.0126">
        <ele>1355.8000488281</ele>
        <time>2014-02-08T11:04:12.000Z</time>
      </trkpt>
      <trkpt lat="45.68072" lon="6.0124">
        <ele>1355.4000244141</ele>
        <time>2014-02-08T11:04:15.000Z</time>
      </trkpt>
      <trkpt lat="45.6807" lon="6.01209">
        <ele>1355.1999511719</ele>
        <time>2014-02-08T11:04:20.000Z</time>
      </trkpt>
      <trkpt lat="45.68071" lon="6.01187">
        <ele>1355</ele>
        <time>2014-02-08T11:04:24.000Z</time>
      </trkpt>
      <trkpt lat="45.68071" lon="6.01171">
        <ele>1354.8000488281</ele>
        <time>2014-02-08T11:04:28.000Z</time>
      </trkpt>
      <trkpt lat="45.68068" lon="6.01156">
        <ele>1354</ele>
        <time>2014-02-08T11:04:31.000Z</time>
      </trkpt>
      <trkpt lat="45.68065" lon="6.01147">
        <ele>1353.1999511719</ele>
        <time>2014-02-08T11:04:33.000Z</time>
      </trkpt>
      <trkpt lat="45.68052" lon="6.01131">
        <ele>1352.5999755859</ele>
        <time>2014-02-08T11:04:38.000Z</time>
      </trkpt>
      <trkpt lat="45.68043" lon="6.01121">
        <ele>1352.5999755859</ele>
        <time>2014-02-08T11:04:41.000Z</time>
      </trkpt>
      <trkpt lat="45.6803" lon="6.01109">
        <ele>1352.8000488281</ele>
        <time>2014-02-08T11:04:45.000Z</time>
      </trkpt>
      <trkpt lat="45.68018" lon="6.01097">
        <ele>1353</ele>
        <time>2014-02-08T11:04:49.000Z</time>
      </trkpt>
      <trkpt lat="45.68007" lon="6.01085">
        <ele>1353.4000244141</ele>
        <time>2014-02-08T11:04:53.000Z</time>
      </trkpt>
      <trkpt lat="45.67995" lon="6.01075">
        <ele>1354.4000244141</ele>
        <time>2014-02-08T11:04:57.000Z</time>
      </trkpt>
      <trkpt lat="45.67983" lon="6.01069">
        <ele>1355.5999755859</ele>
        <time>2014-02-08T11:05:01.000Z</time>
      </trkpt>
      <trkpt lat="45.67968" lon="6.01065">
        <ele>1357.1999511719</ele>
        <time>2014-02-08T11:05:06.000Z</time>
      </trkpt>
      <trkpt lat="45.67965" lon="6.01064">
        <ele>1357.5999755859</ele>
        <time>2014-02-08T11:05:07.000Z</time>
      </trkpt>
      <trkpt lat="45.67956" lon="6.01055">
        <ele>1358.4000244141</ele>
        <time>2014-02-08T11:05:11.000Z</time>
      </trkpt>
      <trkpt lat="45.67946" lon="6.01042">
        <ele>1359.5999755859</ele>
        <time>2014-02-08T11:05:15.000Z</time>
      </trkpt>
      <trkpt lat="45.67939" lon="6.01022">
        <ele>1360.1999511719</ele>
        <time>2014-02-08T11:05:19.000Z</time>
      </trkpt>
      <trkpt lat="45.67934" lon="6.01011">
        <ele>1360.8000488281</ele>
        <time>2014-02-08T11:05:21.000Z</time>
      </trkpt>
      <trkpt lat="45.67935" lon="6.00986">
        <ele>1361.5999755859</ele>
        <time>2014-02-08T11:05:26.000Z</time>
      </trkpt>
      <trkpt lat="45.6794" lon="6.00963">
        <ele>1362</ele>
        <time>2014-02-08T11:05:31.000Z</time>
      </trkpt>
      <trkpt lat="45.67945" lon="6.0095">
        <ele>1361.8000488281</ele>
        <time>2014-02-08T11:05:34.000Z</time>
      </trkpt>
      <trkpt lat="45.6795" lon="6.00933">
        <ele>1361.8000488281</ele>
        <time>2014-02-08T11:05:38.000Z</time>
      </trkpt>
      <trkpt lat="45.67952" lon="6.00917">
        <ele>1362</ele>
        <time>2014-02-08T11:05:42.000Z</time>
      </trkpt>
      <trkpt lat="45.67962" lon="6.00887">
        <ele>1361.5999755859</ele>
        <time>2014-02-08T11:05:48.000Z</time>
      </trkpt>
      <trkpt lat="45.6797" lon="6.00865">
        <ele>1361.1999511719</ele>
        <time>2014-02-08T11:05:52.000Z</time>
      </trkpt>
      <trkpt lat="45.67976" lon="6.00853">
        <ele>1360.4000244141</ele>
        <time>2014-02-08T11:05:54.000Z</time>
      </trkpt>
      <trkpt lat="45.67995" lon="6.00828">
        <ele>1357</ele>
        <time>2014-02-08T11:05:59.000Z</time>
      </trkpt>
      <trkpt lat="45.6801" lon="6.00813">
        <ele>1354.8000488281</ele>
        <time>2014-02-08T11:06:02.000Z</time>
      </trkpt>
      <trkpt lat="45.68029" lon="6.00795">
        <ele>1353.4000244141</ele>
        <time>2014-02-08T11:06:06.000Z</time>
      </trkpt>
      <trkpt lat="45.68038" lon="6.00774">
        <ele>1352.1999511719</ele>
        <time>2014-02-08T11:06:10.000Z</time>
      </trkpt>
      <trkpt lat="45.68039" lon="6.00747">
        <ele>1351.5999755859</ele>
        <time>2014-02-08T11:06:14.000Z</time>
      </trkpt>
      <trkpt lat="45.6804" lon="6.00718">
        <ele>1350.1999511719</ele>
        <time>2014-02-08T11:06:19.000Z</time>
      </trkpt>
      <trkpt lat="45.68045" lon="6.00704">
        <ele>1349.1999511719</ele>
        <time>2014-02-08T11:06:22.000Z</time>
      </trkpt>
      <trkpt lat="45.68048" lon="6.00682">
        <ele>1348.1999511719</ele>
        <time>2014-02-08T11:06:27.000Z</time>
      </trkpt>
      <trkpt lat="45.68046" lon="6.00669">
        <ele>1347.8000488281</ele>
        <time>2014-02-08T11:06:30.000Z</time>
      </trkpt>
      <trkpt lat="45.68047" lon="6.00648">
        <ele>1347</ele>
        <time>2014-02-08T11:06:35.000Z</time>
      </trkpt>
      <trkpt lat="45.68045" lon="6.0064">
        <ele>1346.8000488281</ele>
        <time>2014-02-08T11:06:37.000Z</time>
      </trkpt>
      <trkpt lat="45.68037" lon="6.00629">
        <ele>1347.4000244141</ele>
        <time>2014-02-08T11:06:42.000Z</time>
      </trkpt>
      <trkpt lat="45.68035" lon="6.00627">
        <ele>1347.4000244141</ele>
        <time>2014-02-08T11:06:43.000Z</time>
      </trkpt>
      <trkpt lat="45.68026" lon="6.00623">
        <ele>1348.4000244141</ele>
        <time>2014-02-08T11:06:46.000Z</time>
      </trkpt>
      <trkpt lat="45.68019" lon="6.00629">
        <ele>1349.1999511719</ele>
        <time>2014-02-08T11:06:49.000Z</time>
      </trkpt>
      <trkpt lat="45.68017" lon="6.00631">
        <ele>1349.4000244141</ele>
        <time>2014-02-08T11:06:50.000Z</time>
      </trkpt>
      <trkpt lat="45.68003" lon="6.00639">
        <ele>1351</ele>
        <time>2014-02-08T11:06:54.000Z</time>
      </trkpt>
      <trkpt lat="45.67989" lon="6.00638">
        <ele>1352.1999511719</ele>
        <time>2014-02-08T11:06:58.000Z</time>
      </trkpt>
      <trkpt lat="45.67977" lon="6.00633">
        <ele>1353.1999511719</ele>
        <time>2014-02-08T11:07:02.000Z</time>
      </trkpt>
      <trkpt lat="45.6797" lon="6.00629">
        <ele>1354</ele>
        <time>2014-02-08T11:07:07.000Z</time>
      </trkpt>
      <trkpt lat="45.67963" lon="6.00627">
        <ele>1354.5999755859</ele>
        <time>2014-02-08T11:07:10.000Z</time>
      </trkpt>
      <trkpt lat="45.67952" lon="6.00628">
        <ele>1355.5999755859</ele>
        <time>2014-02-08T11:07:15.000Z</time>
      </trkpt>
      <trkpt lat="45.67946" lon="6.00633">
        <ele>1356</ele>
        <time>2014-02-08T11:07:19.000Z</time>
      </trkpt>
      <trkpt lat="45.67941" lon="6.00642">
        <ele>1356.1999511719</ele>
        <time>2014-02-08T11:07:23.000Z</time>
      </trkpt>
      <trkpt lat="45.67938" lon="6.00655">
        <ele>1356</ele>
        <time>2014-02-08T11:07:27.000Z</time>
      </trkpt>
      <trkpt lat="45.67936" lon="6.00661">
        <ele>1356</ele>
        <time>2014-02-08T11:07:29.000Z</time>
      </trkpt>
      <trkpt lat="45.67932" lon="6.00682">
        <ele>1357.4000244141</ele>
        <time>2014-02-08T11:07:33.000Z</time>
      </trkpt>
      <trkpt lat="45.67925" lon="6.00696">
        <ele>1359.4000244141</ele>
        <time>2014-02-08T11:07:36.000Z</time>
      </trkpt>
      <trkpt lat="45.67914" lon="6.00699">
        <ele>1360.5999755859</ele>
        <time>2014-02-08T11:07:40.000Z</time>
      </trkpt>
      <trkpt lat="45.67905" lon="6.00694">
        <ele>1360.5999755859</ele>
        <time>2014-02-08T11:07:44.000Z</time>
      </trkpt>
      <trkpt lat="45.67895" lon="6.00692">
        <ele>1361.1999511719</ele>
        <time>2014-02-08T11:07:48.000Z</time>
      </trkpt>
      <trkpt lat="45.67886" lon="6.007">
        <ele>1362.1999511719</ele>
        <time>2014-02-08T11:07:53.000Z</time>
      </trkpt>
      <trkpt lat="45.6788" lon="6.00709">
        <ele>1363</ele>
        <time>2014-02-08T11:07:57.000Z</time>
      </trkpt>
      <trkpt lat="45.6787" lon="6.00705">
        <ele>1363.4000244141</ele>
        <time>2014-02-08T11:08:00.000Z</time>
      </trkpt>
      <trkpt lat="45.67869" lon="6.00694">
        <ele>1362.8000488281</ele>
        <time>2014-02-08T11:08:03.000Z</time>
      </trkpt>
      <trkpt lat="45.67869" lon="6.0069">
        <ele>1362.5999755859</ele>
        <time>2014-02-08T11:08:04.000Z</time>
      </trkpt>
      <trkpt lat="45.67864" lon="6.00671">
        <ele>1362.1999511719</ele>
        <time>2014-02-08T11:08:10.000Z</time>
      </trkpt>
      <trkpt lat="45.67862" lon="6.0066">
        <ele>1362.5999755859</ele>
        <time>2014-02-08T11:08:13.000Z</time>
      </trkpt>
      <trkpt lat="45.67861" lon="6.00652">
        <ele>1363.1999511719</ele>
        <time>2014-02-08T11:08:15.000Z</time>
      </trkpt>
      <trkpt lat="45.67867" lon="6.00635">
        <ele>1363.5999755859</ele>
        <time>2014-02-08T11:08:20.000Z</time>
      </trkpt>
      <trkpt lat="45.67871" lon="6.00631">
        <ele>1363.4000244141</ele>
        <time>2014-02-08T11:08:24.000Z</time>
      </trkpt>
      <trkpt lat="45.67878" lon="6.00622">
        <ele>1363</ele>
        <time>2014-02-08T11:08:30.000Z</time>
      </trkpt>
      <trkpt lat="45.67881" lon="6.00618">
        <ele>1363</ele>
        <time>2014-02-08T11:08:33.000Z</time>
      </trkpt>
      <trkpt lat="45.67885" lon="6.00607">
        <ele>1363.1999511719</ele>
        <time>2014-02-08T11:08:39.000Z</time>
      </trkpt>
      <trkpt lat="45.67892" lon="6.00596">
        <ele>1363</ele>
        <time>2014-02-08T11:08:44.000Z</time>
      </trkpt>
      <trkpt lat="45.67898" lon="6.00585">
        <ele>1363</ele>
        <time>2014-02-08T11:08:48.000Z</time>
      </trkpt>
      <trkpt lat="45.67904" lon="6.00574">
        <ele>1363.1999511719</ele>
        <time>2014-02-08T11:08:53.000Z</time>
      </trkpt>
      <trkpt lat="45.67905" lon="6.00572">
        <ele>1363.4000244141</ele>
        <time>2014-02-08T11:08:54.000Z</time>
      </trkpt>
      <trkpt lat="45.6791" lon="6.00556">
        <ele>1364.1999511719</ele>
        <time>2014-02-08T11:09:00.000Z</time>
      </trkpt>
      <trkpt lat="45.67914" lon="6.00546">
        <ele>1364.8000488281</ele>
        <time>2014-02-08T11:09:04.000Z</time>
      </trkpt>
      <trkpt lat="45.67915" lon="6.00543">
        <ele>1365</ele>
        <time>2014-02-08T11:09:05.000Z</time>
      </trkpt>
      <trkpt lat="45.67919" lon="6.00532">
        <ele>1365.5999755859</ele>
        <time>2014-02-08T11:09:09.000Z</time>
      </trkpt>
      <trkpt lat="45.67924" lon="6.00517">
        <ele>1366</ele>
        <time>2014-02-08T11:09:14.000Z</time>
      </trkpt>
      <trkpt lat="45.67925" lon="6.00512">
        <ele>1366.4000244141</ele>
        <time>2014-02-08T11:09:16.000Z</time>
      </trkpt>
      <trkpt lat="45.67928" lon="6.005">
        <ele>1367</ele>
        <time>2014-02-08T11:09:21.000Z</time>
      </trkpt>
      <trkpt lat="45.67929" lon="6.00497">
        <ele>1367</ele>
        <time>2014-02-08T11:09:22.000Z</time>
      </trkpt>
      <trkpt lat="45.67934" lon="6.00488">
        <ele>1366.8000488281</ele>
        <time>2014-02-08T11:09:27.000Z</time>
      </trkpt>
      <trkpt lat="45.67937" lon="6.00476">
        <ele>1367.1999511719</ele>
        <time>2014-02-08T11:09:31.000Z</time>
      </trkpt>
      <trkpt lat="45.6794" lon="6.00462">
        <ele>1367.5999755859</ele>
        <time>2014-02-08T11:09:36.000Z</time>
      </trkpt>
      <trkpt lat="45.67944" lon="6.00454">
        <ele>1367.4000244141</ele>
        <time>2014-02-08T11:09:40.000Z</time>
      </trkpt>
      <trkpt lat="45.67948" lon="6.00435">
        <ele>1367.8000488281</ele>
        <time>2014-02-08T11:09:46.000Z</time>
      </trkpt>
      <trkpt lat="45.67948" lon="6.0042">
        <ele>1369</ele>
        <time>2014-02-08T11:09:50.000Z</time>
      </trkpt>
      <trkpt lat="45.67947" lon="6.00407">
        <ele>1370.4000244141</ele>
        <time>2014-02-08T11:09:53.000Z</time>
      </trkpt>
      <trkpt lat="45.67947" lon="6.00399">
        <ele>1371</ele>
        <time>2014-02-08T11:09:56.000Z</time>
      </trkpt>
      <trkpt lat="45.67948" lon="6.00394">
        <ele>1371</ele>
        <time>2014-02-08T11:09:58.000Z</time>
      </trkpt>
      <trkpt lat="45.67947" lon="6.00386">
        <ele>1372</ele>
        <time>2014-02-08T11:10:02.000Z</time>
      </trkpt>
      <trkpt lat="45.67947" lon="6.00381">
        <ele>1372.4000244141</ele>
        <time>2014-02-08T11:10:05.000Z</time>
      </trkpt>
      <trkpt lat="45.67947" lon="6.00372">
        <ele>1373.1999511719</ele>
        <time>2014-02-08T11:10:09.000Z</time>
      </trkpt>
      <trkpt lat="45.6795" lon="6.00363">
        <ele>1373.4000244141</ele>
        <time>2014-02-08T11:10:13.000Z</time>
      </trkpt>
      <trkpt lat="45.67952" lon="6.00359">
        <ele>1373.1999511719</ele>
        <time>2014-02-08T11:10:15.000Z</time>
      </trkpt>
      <trkpt lat="45.6796" lon="6.00349">
        <ele>1372.4000244141</ele>
        <time>2014-02-08T11:10:21.000Z</time>
      </trkpt>
      <trkpt lat="45.67966" lon="6.00339">
        <ele>1371.8000488281</ele>
        <time>2014-02-08T11:10:26.000Z</time>
      </trkpt>
      <trkpt lat="45.67973" lon="6.00327">
        <ele>1371.1999511719</ele>
        <time>2014-02-08T11:10:32.000Z</time>
      </trkpt>
      <trkpt lat="45.67979" lon="6.00317">
        <ele>1370.1999511719</ele>
        <time>2014-02-08T11:10:37.000Z</time>
      </trkpt>
      <trkpt lat="45.67986" lon="6.00301">
        <ele>1369.4000244141</ele>
        <time>2014-02-08T11:10:43.000Z</time>
      </trkpt>
      <trkpt lat="45.67986" lon="6.00287">
        <ele>1369.8000488281</ele>
        <time>2014-02-08T11:10:48.000Z</time>
      </trkpt>
      <trkpt lat="45.67984" lon="6.00275">
        <ele>1370.5999755859</ele>
        <time>2014-02-08T11:10:53.000Z</time>
      </trkpt>
      <trkpt lat="45.67979" lon="6.00266">
        <ele>1372</ele>
        <time>2014-02-08T11:10:58.000Z</time>
      </trkpt>
      <trkpt lat="45.67975" lon="6.00261">
        <ele>1373.1999511719</ele>
        <time>2014-02-08T11:11:01.000Z</time>
      </trkpt>
      <trkpt lat="45.67968" lon="6.00249">
        <ele>1375.4000244141</ele>
        <time>2014-02-08T11:11:07.000Z</time>
      </trkpt>
      <trkpt lat="45.67963" lon="6.00243">
        <ele>1376.5999755859</ele>
        <time>2014-02-08T11:11:11.000Z</time>
      </trkpt>
      <trkpt lat="45.67959" lon="6.00236">
        <ele>1377.4000244141</ele>
        <time>2014-02-08T11:11:15.000Z</time>
      </trkpt>
      <trkpt lat="45.67959" lon="6.00232">
        <ele>1377.5999755859</ele>
        <time>2014-02-08T11:11:17.000Z</time>
      </trkpt>
      <trkpt lat="45.67957" lon="6.00219">
        <ele>1378.1999511719</ele>
        <time>2014-02-08T11:11:22.000Z</time>
      </trkpt>
      <trkpt lat="45.67955" lon="6.00209">
        <ele>1379</ele>
        <time>2014-02-08T11:11:26.000Z</time>
      </trkpt>
      <trkpt lat="45.67955" lon="6.00196">
        <ele>1379.1999511719</ele>
        <time>2014-02-08T11:11:31.000Z</time>
      </trkpt>
      <trkpt lat="45.67955" lon="6.00175">
        <ele>1379.5999755859</ele>
        <time>2014-02-08T11:11:37.000Z</time>
      </trkpt>
      <trkpt lat="45.67952" lon="6.00156">
        <ele>1381</ele>
        <time>2014-02-08T11:11:41.000Z</time>
      </trkpt>
      <trkpt lat="45.67949" lon="6.00134">
        <ele>1382.8000488281</ele>
        <time>2014-02-08T11:11:46.000Z</time>
      </trkpt>
      <trkpt lat="45.67948" lon="6.00127">
        <ele>1383.4000244141</ele>
        <time>2014-02-08T11:11:48.000Z</time>
      </trkpt>
      <trkpt lat="45.67946" lon="6.00112">
        <ele>1384.4000244141</ele>
        <time>2014-02-08T11:11:53.000Z</time>
      </trkpt>
      <trkpt lat="45.67946" lon="6.00102">
        <ele>1385</ele>
        <time>2014-02-08T11:11:57.000Z</time>
      </trkpt>
      <trkpt lat="45.67945" lon="6.00089">
        <ele>1386</ele>
        <time>2014-02-08T11:12:01.000Z</time>
      </trkpt>
      <trkpt lat="45.67945" lon="6.00084">
        <ele>1386.1999511719</ele>
        <time>2014-02-08T11:12:03.000Z</time>
      </trkpt>
      <trkpt lat="45.67939" lon="6.0007">
        <ele>1387</ele>
        <time>2014-02-08T11:12:08.000Z</time>
      </trkpt>
      <trkpt lat="45.67933" lon="6.00061">
        <ele>1387.5999755859</ele>
        <time>2014-02-08T11:12:11.000Z</time>
      </trkpt>
      <trkpt lat="45.67928" lon="6.00051">
        <ele>1388.1999511719</ele>
        <time>2014-02-08T11:12:15.000Z</time>
      </trkpt>
      <trkpt lat="45.6792" lon="6.00039">
        <ele>1389</ele>
        <time>2014-02-08T11:12:20.000Z</time>
      </trkpt>
      <trkpt lat="45.67913" lon="6.00029">
        <ele>1389.1999511719</ele>
        <time>2014-02-08T11:12:24.000Z</time>
      </trkpt>
      <trkpt lat="45.67906" lon="6.00017">
        <ele>1389.1999511719</ele>
        <time>2014-02-08T11:12:28.000Z</time>
      </trkpt>
      <trkpt lat="45.679" lon="6.00005">
        <ele>1389.1999511719</ele>
        <time>2014-02-08T11:12:32.000Z</time>
      </trkpt>
      <trkpt lat="45.67889" lon="5.99988">
        <ele>1389.5999755859</ele>
        <time>2014-02-08T11:12:37.000Z</time>
      </trkpt>
      <trkpt lat="45.6787" lon="5.99967">
        <ele>1390.8000488281</ele>
        <time>2014-02-08T11:12:43.000Z</time>
      </trkpt>
      <trkpt lat="45.67856" lon="5.99962">
        <ele>1391.5999755859</ele>
        <time>2014-02-08T11:12:47.000Z</time>
      </trkpt>
      <trkpt lat="45.67844" lon="5.99954">
        <ele>1389.4000244141</ele>
        <time>2014-02-08T11:12:52.000Z</time>
      </trkpt>
      <trkpt lat="45.67841" lon="5.99953">
        <ele>1389.4000244141</ele>
        <time>2014-02-08T11:12:55.000Z</time>
      </trkpt>
      <trkpt lat="45.67839" lon="5.99952">
        <ele>1389.4000244141</ele>
        <time>2014-02-08T11:13:00.000Z</time>
      </trkpt>
      <trkpt lat="45.67831" lon="5.99953">
        <ele>1389.5999755859</ele>
        <time>2014-02-08T11:13:05.000Z</time>
      </trkpt>
      <trkpt lat="45.67815" lon="5.99949">
        <ele>1389</ele>
        <time>2014-02-08T11:13:10.000Z</time>
      </trkpt>
      <trkpt lat="45.67802" lon="5.99946">
        <ele>1388.5999755859</ele>
        <time>2014-02-08T11:13:15.000Z</time>
      </trkpt>
      <trkpt lat="45.67791" lon="5.99941">
        <ele>1388</ele>
        <time>2014-02-08T11:13:19.000Z</time>
      </trkpt>
      <trkpt lat="45.67778" lon="5.99933">
        <ele>1387.1999511719</ele>
        <time>2014-02-08T11:13:23.000Z</time>
      </trkpt>
      <trkpt lat="45.67769" lon="5.99923">
        <ele>1386</ele>
        <time>2014-02-08T11:13:26.000Z</time>
      </trkpt>
      <trkpt lat="45.67761" lon="5.99907">
        <ele>1385.5999755859</ele>
        <time>2014-02-08T11:13:30.000Z</time>
      </trkpt>
      <trkpt lat="45.6776" lon="5.999">
        <ele>1385.8000488281</ele>
        <time>2014-02-08T11:13:32.000Z</time>
      </trkpt>
      <trkpt lat="45.67753" lon="5.99879">
        <ele>1386.4000244141</ele>
        <time>2014-02-08T11:13:37.000Z</time>
      </trkpt>
      <trkpt lat="45.67742" lon="5.99867">
        <ele>1386.4000244141</ele>
        <time>2014-02-08T11:13:42.000Z</time>
      </trkpt>
      <trkpt lat="45.67731" lon="5.9986">
        <ele>1386</ele>
        <time>2014-02-08T11:13:47.000Z</time>
      </trkpt>
      <trkpt lat="45.67723" lon="5.99856">
        <ele>1385.5999755859</ele>
        <time>2014-02-08T11:13:51.000Z</time>
      </trkpt>
      <trkpt lat="45.67714" lon="5.99849">
        <ele>1385.1999511719</ele>
        <time>2014-02-08T11:13:55.000Z</time>
      </trkpt>
      <trkpt lat="45.67712" lon="5.99848">
        <ele>1385</ele>
        <time>2014-02-08T11:13:56.000Z</time>
      </trkpt>
      <trkpt lat="45.67704" lon="5.99841">
        <ele>1384.5999755859</ele>
        <time>2014-02-08T11:14:00.000Z</time>
      </trkpt>
      <trkpt lat="45.67702" lon="5.99836">
        <ele>1384.5999755859</ele>
        <time>2014-02-08T11:14:02.000Z</time>
      </trkpt>
      <trkpt lat="45.67703" lon="5.99816">
        <ele>1385.5999755859</ele>
        <time>2014-02-08T11:14:08.000Z</time>
      </trkpt>
      <trkpt lat="45.67698" lon="5.99816">
        <ele>1385.4000244141</ele>
        <time>2014-02-08T11:14:13.000Z</time>
      </trkpt>
      <trkpt lat="45.6769" lon="5.99821">
        <ele>1384.4000244141</ele>
        <time>2014-02-08T11:14:18.000Z</time>
      </trkpt>
      <trkpt lat="45.67676" lon="5.99833">
        <ele>1382.5999755859</ele>
        <time>2014-02-08T11:14:22.000Z</time>
      </trkpt>
      <trkpt lat="45.67653" lon="5.99855">
        <ele>1381.4000244141</ele>
        <time>2014-02-08T11:14:26.000Z</time>
      </trkpt>
      <trkpt lat="45.67641" lon="5.99873">
        <ele>1380.8000488281</ele>
        <time>2014-02-08T11:14:29.000Z</time>
      </trkpt>
      <trkpt lat="45.67638" lon="5.99877">
        <ele>1380.5999755859</ele>
        <time>2014-02-08T11:14:30.000Z</time>
      </trkpt>
      <trkpt lat="45.67631" lon="5.99896">
        <ele>1380.1999511719</ele>
        <time>2014-02-08T11:14:35.000Z</time>
      </trkpt>
      <trkpt lat="45.67629" lon="5.99899">
        <ele>1380.1999511719</ele>
        <time>2014-02-08T11:14:36.000Z</time>
      </trkpt>
      <trkpt lat="45.6762" lon="5.99913">
        <ele>1379.5999755859</ele>
        <time>2014-02-08T11:14:41.000Z</time>
      </trkpt>
      <trkpt lat="45.67615" lon="5.99922">
        <ele>1379.5999755859</ele>
        <time>2014-02-08T11:14:45.000Z</time>
      </trkpt>
      <trkpt lat="45.67615" lon="5.99936">
        <ele>1380.1999511719</ele>
        <time>2014-02-08T11:14:50.000Z</time>
      </trkpt>
      <trkpt lat="45.67617" lon="5.99947">
        <ele>1381</ele>
        <time>2014-02-08T11:14:53.000Z</time>
      </trkpt>
      <trkpt lat="45.67622" lon="5.99955">
        <ele>1381.8000488281</ele>
        <time>2014-02-08T11:14:56.000Z</time>
      </trkpt>
      <trkpt lat="45.67625" lon="5.99964">
        <ele>1382.5999755859</ele>
        <time>2014-02-08T11:15:00.000Z</time>
      </trkpt>
      <trkpt lat="45.67626" lon="5.99967">
        <ele>1382.8000488281</ele>
        <time>2014-02-08T11:15:01.000Z</time>
      </trkpt>
      <trkpt lat="45.67629" lon="5.99977">
        <ele>1383.8000488281</ele>
        <time>2014-02-08T11:15:04.000Z</time>
      </trkpt>
      <trkpt lat="45.67629" lon="5.99989">
        <ele>1384.4000244141</ele>
        <time>2014-02-08T11:15:08.000Z</time>
      </trkpt>
      <trkpt lat="45.67629" lon="5.99992">
        <ele>1384.5999755859</ele>
        <time>2014-02-08T11:15:09.000Z</time>
      </trkpt>
      <trkpt lat="45.67629" lon="6.00006">
        <ele>1385</ele>
        <time>2014-02-08T11:15:13.000Z</time>
      </trkpt>
      <trkpt lat="45.67624" lon="6.00025">
        <ele>1384.4000244141</ele>
        <time>2014-02-08T11:15:17.000Z</time>
      </trkpt>
      <trkpt lat="45.67618" lon="6.00042">
        <ele>1383</ele>
        <time>2014-02-08T11:15:21.000Z</time>
      </trkpt>
      <trkpt lat="45.67613" lon="6.00057">
        <ele>1382.1999511719</ele>
        <time>2014-02-08T11:15:26.000Z</time>
      </trkpt>
      <trkpt lat="45.6761" lon="6.00071">
        <ele>1381.5999755859</ele>
        <time>2014-02-08T11:15:30.000Z</time>
      </trkpt>
      <trkpt lat="45.67609" lon="6.00075">
        <ele>1381.4000244141</ele>
        <time>2014-02-08T11:15:31.000Z</time>
      </trkpt>
      <trkpt lat="45.67607" lon="6.0011">
        <ele>1381.5999755859</ele>
        <time>2014-02-08T11:15:37.000Z</time>
      </trkpt>
      <trkpt lat="45.67601" lon="6.00136">
        <ele>1381.4000244141</ele>
        <time>2014-02-08T11:15:41.000Z</time>
      </trkpt>
      <trkpt lat="45.67594" lon="6.00157">
        <ele>1381</ele>
        <time>2014-02-08T11:15:45.000Z</time>
      </trkpt>
      <trkpt lat="45.67587" lon="6.00191">
        <ele>1379.8000488281</ele>
        <time>2014-02-08T11:15:51.000Z</time>
      </trkpt>
      <trkpt lat="45.67583" lon="6.00214">
        <ele>1378.8000488281</ele>
        <time>2014-02-08T11:15:56.000Z</time>
      </trkpt>
      <trkpt lat="45.6758" lon="6.00225">
        <ele>1378.1999511719</ele>
        <time>2014-02-08T11:15:58.000Z</time>
      </trkpt>
      <trkpt lat="45.67574" lon="6.00256">
        <ele>1377</ele>
        <time>2014-02-08T11:16:02.000Z</time>
      </trkpt>
      <trkpt lat="45.67574" lon="6.00272">
        <ele>1377</ele>
        <time>2014-02-08T11:16:04.000Z</time>
      </trkpt>
      <trkpt lat="45.67574" lon="6.00293">
        <ele>1377</ele>
        <time>2014-02-08T11:16:07.000Z</time>
      </trkpt>
      <trkpt lat="45.6758" lon="6.00309">
        <ele>1377.5999755859</ele>
        <time>2014-02-08T11:16:10.000Z</time>
      </trkpt>
      <trkpt lat="45.67581" lon="6.00332">
        <ele>1377.8000488281</ele>
        <time>2014-02-08T11:16:15.000Z</time>
      </trkpt>
      <trkpt lat="45.67589" lon="6.00344">
        <ele>1378.1999511719</ele>
        <time>2014-02-08T11:16:19.000Z</time>
      </trkpt>
      <trkpt lat="45.67601" lon="6.00356">
        <ele>1378.8000488281</ele>
        <time>2014-02-08T11:16:23.000Z</time>
      </trkpt>
      <trkpt lat="45.6762" lon="6.00373">
        <ele>1379.5999755859</ele>
        <time>2014-02-08T11:16:28.000Z</time>
      </trkpt>
      <trkpt lat="45.6763" lon="6.00375">
        <ele>1380</ele>
        <time>2014-02-08T11:16:30.000Z</time>
      </trkpt>
      <trkpt lat="45.67649" lon="6.00387">
        <ele>1380.5999755859</ele>
        <time>2014-02-08T11:16:34.000Z</time>
      </trkpt>
      <trkpt lat="45.67655" lon="6.00406">
        <ele>1380</ele>
        <time>2014-02-08T11:16:37.000Z</time>
      </trkpt>
      <trkpt lat="45.67655" lon="6.00429">
        <ele>1378.8000488281</ele>
        <time>2014-02-08T11:16:41.000Z</time>
      </trkpt>
      <trkpt lat="45.67657" lon="6.00452">
        <ele>1377.1999511719</ele>
        <time>2014-02-08T11:16:45.000Z</time>
      </trkpt>
      <trkpt lat="45.67664" lon="6.00475">
        <ele>1375.8000488281</ele>
        <time>2014-02-08T11:16:50.000Z</time>
      </trkpt>
      <trkpt lat="45.67669" lon="6.00501">
        <ele>1374</ele>
        <time>2014-02-08T11:16:54.000Z</time>
      </trkpt>
      <trkpt lat="45.67681" lon="6.00525">
        <ele>1373.1999511719</ele>
        <time>2014-02-08T11:16:58.000Z</time>
      </trkpt>
      <trkpt lat="45.67702" lon="6.0055">
        <ele>1371.8000488281</ele>
        <time>2014-02-08T11:17:03.000Z</time>
      </trkpt>
      <trkpt lat="45.67699" lon="6.00573">
        <ele>1370.1999511719</ele>
        <time>2014-02-08T11:17:06.000Z</time>
      </trkpt>
      <trkpt lat="45.67704" lon="6.00589">
        <ele>1369.4000244141</ele>
        <time>2014-02-08T11:17:09.000Z</time>
      </trkpt>
      <trkpt lat="45.67713" lon="6.00599">
        <ele>1369.1999511719</ele>
        <time>2014-02-08T11:17:12.000Z</time>
      </trkpt>
      <trkpt lat="45.6772" lon="6.00607">
        <ele>1368.8000488281</ele>
        <time>2014-02-08T11:17:14.000Z</time>
      </trkpt>
      <trkpt lat="45.67734" lon="6.0062">
        <ele>1368.4000244141</ele>
        <time>2014-02-08T11:17:17.000Z</time>
      </trkpt>
      <trkpt lat="45.67751" lon="6.00642">
        <ele>1367.5999755859</ele>
        <time>2014-02-08T11:17:22.000Z</time>
      </trkpt>
      <trkpt lat="45.67757" lon="6.00648">
        <ele>1367.4000244141</ele>
        <time>2014-02-08T11:17:24.000Z</time>
      </trkpt>
      <trkpt lat="45.6777" lon="6.00661">
        <ele>1366.5999755859</ele>
        <time>2014-02-08T11:17:30.000Z</time>
      </trkpt>
      <trkpt lat="45.67773" lon="6.00664">
        <ele>1366.5999755859</ele>
        <time>2014-02-08T11:17:31.000Z</time>
      </trkpt>
      <trkpt lat="45.67783" lon="6.00683">
        <ele>1366</ele>
        <time>2014-02-08T11:17:36.000Z</time>
      </trkpt>
      <trkpt lat="45.6778" lon="6.00713">
        <ele>1366</ele>
        <time>2014-02-08T11:17:40.000Z</time>
      </trkpt>
      <trkpt lat="45.67781" lon="6.00736">
        <ele>1365.8000488281</ele>
        <time>2014-02-08T11:17:43.000Z</time>
      </trkpt>
      <trkpt lat="45.67781" lon="6.00747">
        <ele>1365.5999755859</ele>
        <time>2014-02-08T11:17:45.000Z</time>
      </trkpt>
      <trkpt lat="45.67775" lon="6.00765">
        <ele>1366.4000244141</ele>
        <time>2014-02-08T11:17:49.000Z</time>
      </trkpt>
      <trkpt lat="45.67773" lon="6.00768">
        <ele>1366.5999755859</ele>
        <time>2014-02-08T11:17:50.000Z</time>
      </trkpt>
      <trkpt lat="45.67765" lon="6.00785">
        <ele>1367.4000244141</ele>
        <time>2014-02-08T11:17:56.000Z</time>
      </trkpt>
      <trkpt lat="45.67755" lon="6.00796">
        <ele>1367.8000488281</ele>
        <time>2014-02-08T11:18:01.000Z</time>
      </trkpt>
      <trkpt lat="45.67748" lon="6.00805">
        <ele>1368</ele>
        <time>2014-02-08T11:18:04.000Z</time>
      </trkpt>
      <trkpt lat="45.67749" lon="6.00814">
        <ele>1368.1999511719</ele>
        <time>2014-02-08T11:18:07.000Z</time>
      </trkpt>
      <trkpt lat="45.67751" lon="6.00819">
        <ele>1368.5999755859</ele>
        <time>2014-02-08T11:18:09.000Z</time>
      </trkpt>
      <trkpt lat="45.67755" lon="6.00836">
        <ele>1369.4000244141</ele>
        <time>2014-02-08T11:18:14.000Z</time>
      </trkpt>
      <trkpt lat="45.67758" lon="6.00848">
        <ele>1371</ele>
        <time>2014-02-08T11:18:18.000Z</time>
      </trkpt>
      <trkpt lat="45.67759" lon="6.00851">
        <ele>1371.4000244141</ele>
        <time>2014-02-08T11:18:19.000Z</time>
      </trkpt>
      <trkpt lat="45.67753" lon="6.00868">
        <ele>1373.1999511719</ele>
        <time>2014-02-08T11:18:24.000Z</time>
      </trkpt>
      <trkpt lat="45.67747" lon="6.00877">
        <ele>1374</ele>
        <time>2014-02-08T11:18:28.000Z</time>
      </trkpt>
      <trkpt lat="45.67738" lon="6.00884">
        <ele>1374.1999511719</ele>
        <time>2014-02-08T11:18:33.000Z</time>
      </trkpt>
      <trkpt lat="45.67732" lon="6.00886">
        <ele>1374</ele>
        <time>2014-02-08T11:18:37.000Z</time>
      </trkpt>
      <trkpt lat="45.67722" lon="6.0089">
        <ele>1373.5999755859</ele>
        <time>2014-02-08T11:18:41.000Z</time>
      </trkpt>
      <trkpt lat="45.67705" lon="6.00899">
        <ele>1373.4000244141</ele>
        <time>2014-02-08T11:18:46.000Z</time>
      </trkpt>
      <trkpt lat="45.6768" lon="6.0091">
        <ele>1372.4000244141</ele>
        <time>2014-02-08T11:18:53.000Z</time>
      </trkpt>
      <trkpt lat="45.67671" lon="6.00915">
        <ele>1372.1999511719</ele>
        <time>2014-02-08T11:18:55.000Z</time>
      </trkpt>
      <trkpt lat="45.67653" lon="6.00928">
        <ele>1371.8000488281</ele>
        <time>2014-02-08T11:19:00.000Z</time>
      </trkpt>
      <trkpt lat="45.67648" lon="6.0094">
        <ele>1372.8000488281</ele>
        <time>2014-02-08T11:19:03.000Z</time>
      </trkpt>
      <trkpt lat="45.67641" lon="6.00967">
        <ele>1374.5999755859</ele>
        <time>2014-02-08T11:19:08.000Z</time>
      </trkpt>
      <trkpt lat="45.67638" lon="6.00989">
        <ele>1376.5999755859</ele>
        <time>2014-02-08T11:19:12.000Z</time>
      </trkpt>
      <trkpt lat="45.67627" lon="6.01008">
        <ele>1377.1999511719</ele>
        <time>2014-02-08T11:19:17.000Z</time>
      </trkpt>
      <trkpt lat="45.67622" lon="6.01016">
        <ele>1377.5999755859</ele>
        <time>2014-02-08T11:19:20.000Z</time>
      </trkpt>
      <trkpt lat="45.67611" lon="6.01024">
        <ele>1377.5999755859</ele>
        <time>2014-02-08T11:19:24.000Z</time>
      </trkpt>
      <trkpt lat="45.676" lon="6.01029">
        <ele>1377.4000244141</ele>
        <time>2014-02-08T11:19:28.000Z</time>
      </trkpt>
      <trkpt lat="45.67593" lon="6.01034">
        <ele>1377.5999755859</ele>
        <time>2014-02-08T11:19:31.000Z</time>
      </trkpt>
      <trkpt lat="45.67586" lon="6.0104">
        <ele>1378</ele>
        <time>2014-02-08T11:19:35.000Z</time>
      </trkpt>
      <trkpt lat="45.67578" lon="6.01046">
        <ele>1378.8000488281</ele>
        <time>2014-02-08T11:19:41.000Z</time>
      </trkpt>
      <trkpt lat="45.67569" lon="6.01053">
        <ele>1380.1999511719</ele>
        <time>2014-02-08T11:19:46.000Z</time>
      </trkpt>
      <trkpt lat="45.67563" lon="6.01063">
        <ele>1381.4000244141</ele>
        <time>2014-02-08T11:19:51.000Z</time>
      </trkpt>
      <trkpt lat="45.67563" lon="6.01066">
        <ele>1381.5999755859</ele>
        <time>2014-02-08T11:19:52.000Z</time>
      </trkpt>
      <trkpt lat="45.67558" lon="6.01083">
        <ele>1383.1999511719</ele>
        <time>2014-02-08T11:19:59.000Z</time>
      </trkpt>
      <trkpt lat="45.67557" lon="6.01096">
        <ele>1383.4000244141</ele>
        <time>2014-02-08T11:20:04.000Z</time>
      </trkpt>
      <trkpt lat="45.67554" lon="6.01112">
        <ele>1383.4000244141</ele>
        <time>2014-02-08T11:20:09.000Z</time>
      </trkpt>
      <trkpt lat="45.67551" lon="6.01126">
        <ele>1383.5999755859</ele>
        <time>2014-02-08T11:20:13.000Z</time>
      </trkpt>
      <trkpt lat="45.6755" lon="6.01129">
        <ele>1383.5999755859</ele>
        <time>2014-02-08T11:20:14.000Z</time>
      </trkpt>
      <trkpt lat="45.67541" lon="6.01154">
        <ele>1383.4000244141</ele>
        <time>2014-02-08T11:20:19.000Z</time>
      </trkpt>
      <trkpt lat="45.67536" lon="6.0118">
        <ele>1383.4000244141</ele>
        <time>2014-02-08T11:20:22.000Z</time>
      </trkpt>
      <trkpt lat="45.6752" lon="6.01209">
        <ele>1382.4000244141</ele>
        <time>2014-02-08T11:20:27.000Z</time>
      </trkpt>
      <trkpt lat="45.67512" lon="6.01224">
        <ele>1381.5999755859</ele>
        <time>2014-02-08T11:20:31.000Z</time>
      </trkpt>
      <trkpt lat="45.67507" lon="6.01241">
        <ele>1380.8000488281</ele>
        <time>2014-02-08T11:20:36.000Z</time>
      </trkpt>
      <trkpt lat="45.67505" lon="6.01254">
        <ele>1380.5999755859</ele>
        <time>2014-02-08T11:20:40.000Z</time>
      </trkpt>
      <trkpt lat="45.67505" lon="6.01267">
        <ele>1381</ele>
        <time>2014-02-08T11:20:44.000Z</time>
      </trkpt>
      <trkpt lat="45.67512" lon="6.0128">
        <ele>1382.1999511719</ele>
        <time>2014-02-08T11:20:49.000Z</time>
      </trkpt>
      <trkpt lat="45.6752" lon="6.01288">
        <ele>1383.1999511719</ele>
        <time>2014-02-08T11:20:55.000Z</time>
      </trkpt>
      <trkpt lat="45.67525" lon="6.01297">
        <ele>1384</ele>
        <time>2014-02-08T11:21:00.000Z</time>
      </trkpt>
      <trkpt lat="45.67531" lon="6.01304">
        <ele>1384.8000488281</ele>
        <time>2014-02-08T11:21:05.000Z</time>
      </trkpt>
      <trkpt lat="45.67534" lon="6.01309">
        <ele>1385.1999511719</ele>
        <time>2014-02-08T11:21:09.000Z</time>
      </trkpt>
      <trkpt lat="45.67537" lon="6.01314">
        <ele>1385.8000488281</ele>
        <time>2014-02-08T11:21:13.000Z</time>
      </trkpt>
      <trkpt lat="45.6754" lon="6.01317">
        <ele>1386.1999511719</ele>
        <time>2014-02-08T11:21:16.000Z</time>
      </trkpt>
      <trkpt lat="45.67543" lon="6.01323">
        <ele>1386.8000488281</ele>
        <time>2014-02-08T11:21:21.000Z</time>
      </trkpt>
      <trkpt lat="45.67551" lon="6.01327">
        <ele>1387.5999755859</ele>
        <time>2014-02-08T11:21:28.000Z</time>
      </trkpt>
      <trkpt lat="45.67554" lon="6.01331">
        <ele>1388</ele>
        <time>2014-02-08T11:21:31.000Z</time>
      </trkpt>
      <trkpt lat="45.67558" lon="6.01335">
        <ele>1388.5999755859</ele>
        <time>2014-02-08T11:21:35.000Z</time>
      </trkpt>
      <trkpt lat="45.67562" lon="6.01341">
        <ele>1389.1999511719</ele>
        <time>2014-02-08T11:21:39.000Z</time>
      </trkpt>
      <trkpt lat="45.67569" lon="6.01346">
        <ele>1390.1999511719</ele>
        <time>2014-02-08T11:21:44.000Z</time>
      </trkpt>
      <trkpt lat="45.67575" lon="6.01353">
        <ele>1391</ele>
        <time>2014-02-08T11:21:49.000Z</time>
      </trkpt>
      <trkpt lat="45.67577" lon="6.01361">
        <ele>1391.4000244141</ele>
        <time>2014-02-08T11:21:55.000Z</time>
      </trkpt>
      <trkpt lat="45.6758" lon="6.01368">
        <ele>1392</ele>
        <time>2014-02-08T11:22:00.000Z</time>
      </trkpt>
      <trkpt lat="45.67582" lon="6.0137">
        <ele>1392.1999511719</ele>
        <time>2014-02-08T11:22:02.000Z</time>
      </trkpt>
      <trkpt lat="45.67589" lon="6.01376">
        <ele>1392.8000488281</ele>
        <time>2014-02-08T11:22:06.000Z</time>
      </trkpt>
      <trkpt lat="45.67592" lon="6.01378">
        <ele>1393</ele>
        <time>2014-02-08T11:22:08.000Z</time>
      </trkpt>
      <trkpt lat="45.67599" lon="6.01384">
        <ele>1393.5999755859</ele>
        <time>2014-02-08T11:22:13.000Z</time>
      </trkpt>
      <trkpt lat="45.67607" lon="6.01395">
        <ele>1394.1999511719</ele>
        <time>2014-02-08T11:22:20.000Z</time>
      </trkpt>
      <trkpt lat="45.67609" lon="6.01396">
        <ele>1394.1999511719</ele>
        <time>2014-02-08T11:22:21.000Z</time>
      </trkpt>
      <trkpt lat="45.67617" lon="6.01404">
        <ele>1394.5999755859</ele>
        <time>2014-02-08T11:22:26.000Z</time>
      </trkpt>
      <trkpt lat="45.67618" lon="6.01406">
        <ele>1394.8000488281</ele>
        <time>2014-02-08T11:22:27.000Z</time>
      </trkpt>
      <trkpt lat="45.67624" lon="6.01414">
        <ele>1395</ele>
        <time>2014-02-08T11:22:32.000Z</time>
      </trkpt>
      <trkpt lat="45.67628" lon="6.01418">
        <ele>1395</ele>
        <time>2014-02-08T11:22:35.000Z</time>
      </trkpt>
      <trkpt lat="45.68029" lon="6.01989">
        <ele>1363.1999511719</ele>
        <time>2014-02-08T11:26:33.000Z</time>
      </trkpt>
      <trkpt lat="45.68029" lon="6.02001">
        <ele>1363.8000488281</ele>
        <time>2014-02-08T11:26:36.000Z</time>
      </trkpt>
      <trkpt lat="45.68027" lon="6.02015">
        <ele>1365</ele>
        <time>2014-02-08T11:26:41.000Z</time>
      </trkpt>
      <trkpt lat="45.68027" lon="6.02021">
        <ele>1365.1999511719</ele>
        <time>2014-02-08T11:26:43.000Z</time>
      </trkpt>
      <trkpt lat="45.6803" lon="6.02035">
        <ele>1365.4000244141</ele>
        <time>2014-02-08T11:26:48.000Z</time>
      </trkpt>
      <trkpt lat="45.68031" lon="6.02046">
        <ele>1365.8000488281</ele>
        <time>2014-02-08T11:26:52.000Z</time>
      </trkpt>
      <trkpt lat="45.68033" lon="6.02054">
        <ele>1366</ele>
        <time>2014-02-08T11:26:55.000Z</time>
      </trkpt>
      <trkpt lat="45.68033" lon="6.02059">
        <ele>1366.1999511719</ele>
        <time>2014-02-08T11:26:57.000Z</time>
      </trkpt>
      <trkpt lat="45.68036" lon="6.02072">
        <ele>1366.4000244141</ele>
        <time>2014-02-08T11:27:01.000Z</time>
      </trkpt>
      <trkpt lat="45.68036" lon="6.02078">
        <ele>1366.5999755859</ele>
        <time>2014-02-08T11:27:03.000Z</time>
      </trkpt>
      <trkpt lat="45.6804" lon="6.02088">
        <ele>1366.5999755859</ele>
        <time>2014-02-08T11:27:07.000Z</time>
      </trkpt>
      <trkpt lat="45.68046" lon="6.02103">
        <ele>1367.1999511719</ele>
        <time>2014-02-08T11:27:12.000Z</time>
      </trkpt>
      <trkpt lat="45.68048" lon="6.02106">
        <ele>1367.1999511719</ele>
        <time>2014-02-08T11:27:13.000Z</time>
      </trkpt>
      <trkpt lat="45.68058" lon="6.02116">
        <ele>1367.1999511719</ele>
        <time>2014-02-08T11:27:18.000Z</time>
      </trkpt>
      <trkpt lat="45.68063" lon="6.02121">
        <ele>1367.1999511719</ele>
        <time>2014-02-08T11:27:20.000Z</time>
      </trkpt>
      <trkpt lat="45.68077" lon="6.02128">
        <ele>1367</ele>
        <time>2014-02-08T11:27:26.000Z</time>
      </trkpt>
      <trkpt lat="45.68086" lon="6.02132">
        <ele>1367</ele>
        <time>2014-02-08T11:27:30.000Z</time>
      </trkpt>
      <trkpt lat="45.6809" lon="6.02134">
        <ele>1366.8000488281</ele>
        <time>2014-02-08T11:27:32.000Z</time>
      </trkpt>
      <trkpt lat="45.68104" lon="6.02143">
        <ele>1366.4000244141</ele>
        <time>2014-02-08T11:27:38.000Z</time>
      </trkpt>
      <trkpt lat="45.68112" lon="6.02151">
        <ele>1366.5999755859</ele>
        <time>2014-02-08T11:27:42.000Z</time>
      </trkpt>
      <trkpt lat="45.68123" lon="6.02162">
        <ele>1366.5999755859</ele>
        <time>2014-02-08T11:27:47.000Z</time>
      </trkpt>
      <trkpt lat="45.68132" lon="6.02169">
        <ele>1366.1999511719</ele>
        <time>2014-02-08T11:27:50.000Z</time>
      </trkpt>
      <trkpt lat="45.68139" lon="6.02181">
        <ele>1366.5999755859</ele>
        <time>2014-02-08T11:27:55.000Z</time>
      </trkpt>
      <trkpt lat="45.68147" lon="6.02195">
        <ele>1367.5999755859</ele>
        <time>2014-02-08T11:28:00.000Z</time>
      </trkpt>
      <trkpt lat="45.68156" lon="6.02209">
        <ele>1368.5999755859</ele>
        <time>2014-02-08T11:28:05.000Z</time>
      </trkpt>
      <trkpt lat="45.68164" lon="6.02223">
        <ele>1369.8000488281</ele>
        <time>2014-02-08T11:28:09.000Z</time>
      </trkpt>
      <trkpt lat="45.68173" lon="6.02238">
        <ele>1370.1999511719</ele>
        <time>2014-02-08T11:28:13.000Z</time>
      </trkpt>
      <trkpt lat="45.68175" lon="6.02241">
        <ele>1370.1999511719</ele>
        <time>2014-02-08T11:28:14.000Z</time>
      </trkpt>
      <trkpt lat="45.68185" lon="6.02252">
        <ele>1369</ele>
        <time>2014-02-08T11:28:18.000Z</time>
      </trkpt>
      <trkpt lat="45.68199" lon="6.02263">
        <ele>1367.4000244141</ele>
        <time>2014-02-08T11:28:23.000Z</time>
      </trkpt>
      <trkpt lat="45.68203" lon="6.02268">
        <ele>1367.1999511719</ele>
        <time>2014-02-08T11:28:25.000Z</time>
      </trkpt>
      <trkpt lat="45.68212" lon="6.02276">
        <ele>1366.4000244141</ele>
        <time>2014-02-08T11:28:28.000Z</time>
      </trkpt>
      <trkpt lat="45.68218" lon="6.02285">
        <ele>1366.5999755859</ele>
        <time>2014-02-08T11:28:31.000Z</time>
      </trkpt>
      <trkpt lat="45.68223" lon="6.02299">
        <ele>1368.1999511719</ele>
        <time>2014-02-08T11:28:35.000Z</time>
      </trkpt>
      <trkpt lat="45.68229" lon="6.0231">
        <ele>1369.4000244141</ele>
        <time>2014-02-08T11:28:38.000Z</time>
      </trkpt>
      <trkpt lat="45.68239" lon="6.02328">
        <ele>1370.4000244141</ele>
        <time>2014-02-08T11:28:43.000Z</time>
      </trkpt>
      <trkpt lat="45.68245" lon="6.02339">
        <ele>1371.5999755859</ele>
        <time>2014-02-08T11:28:46.000Z</time>
      </trkpt>
      <trkpt lat="45.68253" lon="6.02354">
        <ele>1373.4000244141</ele>
        <time>2014-02-08T11:28:50.000Z</time>
      </trkpt>
      <trkpt lat="45.6826" lon="6.02365">
        <ele>1373.5999755859</ele>
        <time>2014-02-08T11:28:53.000Z</time>
      </trkpt>
      <trkpt lat="45.68272" lon="6.02382">
        <ele>1374.1999511719</ele>
        <time>2014-02-08T11:28:58.000Z</time>
      </trkpt>
      <trkpt lat="45.68285" lon="6.02394">
        <ele>1373.1999511719</ele>
        <time>2014-02-08T11:29:02.000Z</time>
      </trkpt>
      <trkpt lat="45.68292" lon="6.02396">
        <ele>1371.5999755859</ele>
        <time>2014-02-08T11:29:04.000Z</time>
      </trkpt>
      <trkpt lat="45.68308" lon="6.02406">
        <ele>1368.5999755859</ele>
        <time>2014-02-08T11:29:09.000Z</time>
      </trkpt>
      <trkpt lat="45.68312" lon="6.02408">
        <ele>1367.8000488281</ele>
        <time>2014-02-08T11:29:10.000Z</time>
      </trkpt>
      <trkpt lat="45.68336" lon="6.02426">
        <ele>1364.1999511719</ele>
        <time>2014-02-08T11:29:17.000Z</time>
      </trkpt>
      <trkpt lat="45.68353" lon="6.0244">
        <ele>1363.5999755859</ele>
        <time>2014-02-08T11:29:22.000Z</time>
      </trkpt>
      <trkpt lat="45.68374" lon="6.02462">
        <ele>1364</ele>
        <time>2014-02-08T11:29:29.000Z</time>
      </trkpt>
      <trkpt lat="45.68383" lon="6.02469">
        <ele>1363.8000488281</ele>
        <time>2014-02-08T11:29:32.000Z</time>
      </trkpt>
      <trkpt lat="45.68397" lon="6.02476">
        <ele>1362.8000488281</ele>
        <time>2014-02-08T11:29:36.000Z</time>
      </trkpt>
      <trkpt lat="45.68415" lon="6.02483">
        <ele>1361.1999511719</ele>
        <time>2014-02-08T11:29:41.000Z</time>
      </trkpt>
      <trkpt lat="45.68429" lon="6.02488">
        <ele>1359.8000488281</ele>
        <time>2014-02-08T11:29:45.000Z</time>
      </trkpt>
      <trkpt lat="45.68444" lon="6.02494">
        <ele>1358.1999511719</ele>
        <time>2014-02-08T11:29:49.000Z</time>
      </trkpt>
      <trkpt lat="45.68457" lon="6.02502">
        <ele>1357</ele>
        <time>2014-02-08T11:29:52.000Z</time>
      </trkpt>
      <trkpt lat="45.68478" lon="6.02524">
        <ele>1354.1999511719</ele>
        <time>2014-02-08T11:29:57.000Z</time>
      </trkpt>
      <trkpt lat="45.68491" lon="6.02564">
        <ele>1354</ele>
        <time>2014-02-08T11:30:02.000Z</time>
      </trkpt>
      <trkpt lat="45.68493" lon="6.02588">
        <ele>1354.5999755859</ele>
        <time>2014-02-08T11:30:05.000Z</time>
      </trkpt>
      <trkpt lat="45.68493" lon="6.02596">
        <ele>1354.1999511719</ele>
        <time>2014-02-08T11:30:06.000Z</time>
      </trkpt>
      <trkpt lat="45.68494" lon="6.02611">
        <ele>1353.5999755859</ele>
        <time>2014-02-08T11:30:08.000Z</time>
      </trkpt>
      <trkpt lat="45.68493" lon="6.02641">
        <ele>1352.8000488281</ele>
        <time>2014-02-08T11:30:12.000Z</time>
      </trkpt>
      <trkpt lat="45.68497" lon="6.02686">
        <ele>1350.5999755859</ele>
        <time>2014-02-08T11:30:18.000Z</time>
      </trkpt>
      <trkpt lat="45.68497" lon="6.02718">
        <ele>1348.8000488281</ele>
        <time>2014-02-08T11:30:22.000Z</time>
      </trkpt>
      <trkpt lat="45.68494" lon="6.0277">
        <ele>1345.8000488281</ele>
        <time>2014-02-08T11:30:28.000Z</time>
      </trkpt>
      <trkpt lat="45.68485" lon="6.02822">
        <ele>1342.5999755859</ele>
        <time>2014-02-08T11:30:34.000Z</time>
      </trkpt>
      <trkpt lat="45.68467" lon="6.02854">
        <ele>1345.5999755859</ele>
        <time>2014-02-08T11:30:39.000Z</time>
      </trkpt>
      <trkpt lat="45.68457" lon="6.02864">
        <ele>1348</ele>
        <time>2014-02-08T11:30:41.000Z</time>
      </trkpt>
      <trkpt lat="45.68447" lon="6.02876">
        <ele>1350.5999755859</ele>
        <time>2014-02-08T11:30:43.000Z</time>
      </trkpt>
      <trkpt lat="45.68431" lon="6.02916">
        <ele>1355</ele>
        <time>2014-02-08T11:30:48.000Z</time>
      </trkpt>
      <trkpt lat="45.6843" lon="6.02924">
        <ele>1355.1999511719</ele>
        <time>2014-02-08T11:30:49.000Z</time>
      </trkpt>
      <trkpt lat="45.6843" lon="6.0295">
        <ele>1354.5999755859</ele>
        <time>2014-02-08T11:30:52.000Z</time>
      </trkpt>
      <trkpt lat="45.68442" lon="6.02974">
        <ele>1351.1999511719</ele>
        <time>2014-02-08T11:30:56.000Z</time>
      </trkpt>
      <trkpt lat="45.68449" lon="6.02975">
        <ele>1349.5999755859</ele>
        <time>2014-02-08T11:30:57.000Z</time>
      </trkpt>
      <trkpt lat="45.68489" lon="6.03008">
        <ele>1341.1999511719</ele>
        <time>2014-02-08T11:31:03.000Z</time>
      </trkpt>
      <trkpt lat="45.685" lon="6.03056">
        <ele>1339</ele>
        <time>2014-02-08T11:31:08.000Z</time>
      </trkpt>
      <trkpt lat="45.685" lon="6.03082">
        <ele>1339</ele>
        <time>2014-02-08T11:31:11.000Z</time>
      </trkpt>
      <trkpt lat="45.68497" lon="6.03115">
        <ele>1338.8000488281</ele>
        <time>2014-02-08T11:31:15.000Z</time>
      </trkpt>
      <trkpt lat="45.68494" lon="6.03131">
        <ele>1338.5999755859</ele>
        <time>2014-02-08T11:31:17.000Z</time>
      </trkpt>
      <trkpt lat="45.68489" lon="6.03158">
        <ele>1338.4000244141</ele>
        <time>2014-02-08T11:31:20.000Z</time>
      </trkpt>
      <trkpt lat="45.68488" lon="6.03201">
        <ele>1336.4000244141</ele>
        <time>2014-02-08T11:31:25.000Z</time>
      </trkpt>
      <trkpt lat="45.68484" lon="6.0322">
        <ele>1335.4000244141</ele>
        <time>2014-02-08T11:31:27.000Z</time>
      </trkpt>
      <trkpt lat="45.68485" lon="6.03253">
        <ele>1333.5999755859</ele>
        <time>2014-02-08T11:31:32.000Z</time>
      </trkpt>
      <trkpt lat="45.68494" lon="6.03257">
        <ele>1333.4000244141</ele>
        <time>2014-02-08T11:31:35.000Z</time>
      </trkpt>
      <trkpt lat="45.68504" lon="6.03253">
        <ele>1333.4000244141</ele>
        <time>2014-02-08T11:31:41.000Z</time>
      </trkpt>
      <trkpt lat="45.68506" lon="6.03252">
        <ele>1333.4000244141</ele>
        <time>2014-02-08T11:31:42.000Z</time>
      </trkpt>
      <trkpt lat="45.68509" lon="6.03247">
        <ele>1333.8000488281</ele>
        <time>2014-02-08T11:31:45.000Z</time>
      </trkpt>
      <trkpt lat="45.68522" lon="6.03247">
        <ele>1334.5999755859</ele>
        <time>2014-02-08T11:31:54.000Z</time>
      </trkpt>
      <trkpt lat="45.68523" lon="6.03246">
        <ele>1334.8000488281</ele>
        <time>2014-02-08T11:32:00.000Z</time>
      </trkpt>
      <trkpt lat="45.68524" lon="6.03248">
        <ele>1334.8000488281</ele>
        <time>2014-02-08T11:32:08.000Z</time>
      </trkpt>
      <trkpt lat="45.68525" lon="6.03249">
        <ele>1334.8000488281</ele>
        <time>2014-02-08T11:32:10.000Z</time>
      </trkpt>
      <trkpt lat="45.68535" lon="6.0325">
        <ele>1335.5999755859</ele>
        <time>2014-02-08T11:32:15.000Z</time>
      </trkpt>
      <trkpt lat="45.68555" lon="6.03248">
        <ele>1337</ele>
        <time>2014-02-08T11:32:21.000Z</time>
      </trkpt>
      <trkpt lat="45.68569" lon="6.0325">
        <ele>1338</ele>
        <time>2014-02-08T11:32:25.000Z</time>
      </trkpt>
      <trkpt lat="45.68581" lon="6.03251">
        <ele>1338.8000488281</ele>
        <time>2014-02-08T11:32:29.000Z</time>
      </trkpt>
      <trkpt lat="45.68596" lon="6.0325">
        <ele>1338.5999755859</ele>
        <time>2014-02-08T11:32:33.000Z</time>
      </trkpt>
      <trkpt lat="45.68611" lon="6.03249">
        <ele>1338.1999511719</ele>
        <time>2014-02-08T11:32:37.000Z</time>
      </trkpt>
      <trkpt lat="45.68627" lon="6.03249">
        <ele>1338</ele>
        <time>2014-02-08T11:32:41.000Z</time>
      </trkpt>
      <trkpt lat="45.6864" lon="6.03252">
        <ele>1337.8000488281</ele>
        <time>2014-02-08T11:32:45.000Z</time>
      </trkpt>
      <trkpt lat="45.68651" lon="6.03266">
        <ele>1338.1999511719</ele>
        <time>2014-02-08T11:32:50.000Z</time>
      </trkpt>
      <trkpt lat="45.68672" lon="6.03284">
        <ele>1338.4000244141</ele>
        <time>2014-02-08T11:32:57.000Z</time>
      </trkpt>
      <trkpt lat="45.68688" lon="6.03291">
        <ele>1336.5999755859</ele>
        <time>2014-02-08T11:33:02.000Z</time>
      </trkpt>
      <trkpt lat="45.68703" lon="6.03303">
        <ele>1335.1999511719</ele>
        <time>2014-02-08T11:33:08.000Z</time>
      </trkpt>
      <trkpt lat="45.68713" lon="6.03315">
        <ele>1334.1999511719</ele>
        <time>2014-02-08T11:33:15.000Z</time>
      </trkpt>
      <trkpt lat="45.68725" lon="6.03328">
        <ele>1332.8000488281</ele>
        <time>2014-02-08T11:33:22.000Z</time>
      </trkpt>
      <trkpt lat="45.68732" lon="6.03332">
        <ele>1331.8000488281</ele>
        <time>2014-02-08T11:33:28.000Z</time>
      </trkpt>
      <trkpt lat="45.68735" lon="6.03332">
        <ele>1331.4000244141</ele>
        <time>2014-02-08T11:33:36.000Z</time>
      </trkpt>
      <trkpt lat="45.68736" lon="6.03331">
        <ele>1331.1999511719</ele>
        <time>2014-02-08T11:33:41.000Z</time>
      </trkpt>
      <trkpt lat="45.68737" lon="6.0333">
        <ele>1331</ele>
        <time>2014-02-08T11:33:51.000Z</time>
      </trkpt>
      <trkpt lat="45.68736" lon="6.03326">
        <ele>1331</ele>
        <time>2014-02-08T11:33:57.000Z</time>
      </trkpt>
      <trkpt lat="45.68736" lon="6.03324">
        <ele>1331</ele>
        <time>2014-02-08T11:34:02.000Z</time>
      </trkpt>
      <trkpt lat="45.68736" lon="6.0332">
        <ele>1331</ele>
        <time>2014-02-08T11:34:08.000Z</time>
      </trkpt>
      <trkpt lat="45.68736" lon="6.03318">
        <ele>1330.8000488281</ele>
        <time>2014-02-08T11:34:13.000Z</time>
      </trkpt>
      <trkpt lat="45.68738" lon="6.03313">
        <ele>1330.5999755859</ele>
        <time>2014-02-08T11:34:21.000Z</time>
      </trkpt>
      <trkpt lat="45.68738" lon="6.03308">
        <ele>1330.4000244141</ele>
        <time>2014-02-08T11:34:27.000Z</time>
      </trkpt>
      <trkpt lat="45.68738" lon="6.03312">
        <ele>1330.4000244141</ele>
        <time>2014-02-08T11:34:38.000Z</time>
      </trkpt>
      <trkpt lat="45.68737" lon="6.03311">
        <ele>1330.5999755859</ele>
        <time>2014-02-08T11:34:51.000Z</time>
      </trkpt>
      <trkpt lat="45.68738" lon="6.0331">
        <ele>1330.4000244141</ele>
        <time>2014-02-08T11:35:04.000Z</time>
      </trkpt>
      <trkpt lat="45.6874" lon="6.03308">
        <ele>1330.1999511719</ele>
        <time>2014-02-08T11:35:10.000Z</time>
      </trkpt>
      <trkpt lat="45.6874" lon="6.03309">
        <ele>1330</ele>
        <time>2014-02-08T11:35:15.000Z</time>
      </trkpt>
      <trkpt lat="45.68737" lon="6.03306">
        <ele>1330.5999755859</ele>
        <time>2014-02-08T11:35:29.000Z</time>
      </trkpt>
      <trkpt lat="45.68735" lon="6.03308">
        <ele>1330.8000488281</ele>
        <time>2014-02-08T11:35:37.000Z</time>
      </trkpt>
      <trkpt lat="45.68735" lon="6.03313">
        <ele>1331</ele>
        <time>2014-02-08T11:35:41.000Z</time>
      </trkpt>
      <trkpt lat="45.68735" lon="6.03319">
        <ele>1331</ele>
        <time>2014-02-08T11:35:46.000Z</time>
      </trkpt>
      <trkpt lat="45.68734" lon="6.03324">
        <ele>1331.4000244141</ele>
        <time>2014-02-08T11:35:51.000Z</time>
      </trkpt>
      <trkpt lat="45.68733" lon="6.0333">
        <ele>1331.5999755859</ele>
        <time>2014-02-08T11:35:57.000Z</time>
      </trkpt>
      <trkpt lat="45.68733" lon="6.03334">
        <ele>1331.8000488281</ele>
        <time>2014-02-08T11:36:01.000Z</time>
      </trkpt>
      <trkpt lat="45.68731" lon="6.03336">
        <ele>1332.1999511719</ele>
        <time>2014-02-08T11:36:05.000Z</time>
      </trkpt>
      <trkpt lat="45.6873" lon="6.03338">
        <ele>1332.4000244141</ele>
        <time>2014-02-08T11:36:11.000Z</time>
      </trkpt>
      <trkpt lat="45.68731" lon="6.03338">
        <ele>1332.4000244141</ele>
        <time>2014-02-08T11:36:18.000Z</time>
      </trkpt>
      <trkpt lat="45.68754" lon="6.0334">
        <ele>1329</ele>
        <time>2014-02-08T11:38:26.000Z</time>
      </trkpt>
      <trkpt lat="45.68752" lon="6.03352">
        <ele>1330</ele>
        <time>2014-02-08T11:38:30.000Z</time>
      </trkpt>
      <trkpt lat="45.68751" lon="6.03359">
        <ele>1330.5999755859</ele>
        <time>2014-02-08T11:38:34.000Z</time>
      </trkpt>
      <trkpt lat="45.68747" lon="6.03359">
        <ele>1331.1999511719</ele>
        <time>2014-02-08T11:38:36.000Z</time>
      </trkpt>
      <trkpt lat="45.68742" lon="6.03354">
        <ele>1331.5999755859</ele>
        <time>2014-02-08T11:38:39.000Z</time>
      </trkpt>
      <trkpt lat="45.68734" lon="6.03345">
        <ele>1332.1999511719</ele>
        <time>2014-02-08T11:38:44.000Z</time>
      </trkpt>
      <trkpt lat="45.68729" lon="6.03339">
        <ele>1332.5999755859</ele>
        <time>2014-02-08T11:38:48.000Z</time>
      </trkpt>
      <trkpt lat="45.68728" lon="6.03337">
        <ele>1332.8000488281</ele>
        <time>2014-02-08T11:38:49.000Z</time>
      </trkpt>
      <trkpt lat="45.68722" lon="6.03331">
        <ele>1333.1999511719</ele>
        <time>2014-02-08T11:38:52.000Z</time>
      </trkpt>
      <trkpt lat="45.68716" lon="6.03322">
        <ele>1334</ele>
        <time>2014-02-08T11:38:56.000Z</time>
      </trkpt>
      <trkpt lat="45.68713" lon="6.03316">
        <ele>1334.1999511719</ele>
        <time>2014-02-08T11:38:59.000Z</time>
      </trkpt>
      <trkpt lat="45.68706" lon="6.03306">
        <ele>1334.8000488281</ele>
        <time>2014-02-08T11:39:05.000Z</time>
      </trkpt>
      <trkpt lat="45.68696" lon="6.03298">
        <ele>1335.8000488281</ele>
        <time>2014-02-08T11:39:10.000Z</time>
      </trkpt>
      <trkpt lat="45.68688" lon="6.03289">
        <ele>1336.5999755859</ele>
        <time>2014-02-08T11:39:14.000Z</time>
      </trkpt>
      <trkpt lat="45.68673" lon="6.03281">
        <ele>1338</ele>
        <time>2014-02-08T11:39:20.000Z</time>
      </trkpt>
      <trkpt lat="45.68669" lon="6.03277">
        <ele>1338.4000244141</ele>
        <time>2014-02-08T11:39:22.000Z</time>
      </trkpt>
      <trkpt lat="45.68661" lon="6.03268">
        <ele>1338.1999511719</ele>
        <time>2014-02-08T11:39:26.000Z</time>
      </trkpt>
      <trkpt lat="45.68655" lon="6.03261">
        <ele>1337.8000488281</ele>
        <time>2014-02-08T11:39:29.000Z</time>
      </trkpt>
      <trkpt lat="45.68643" lon="6.0325">
        <ele>1337.5999755859</ele>
        <time>2014-02-08T11:39:34.000Z</time>
      </trkpt>
      <trkpt lat="45.68629" lon="6.03247">
        <ele>1337.5999755859</ele>
        <time>2014-02-08T11:39:38.000Z</time>
      </trkpt>
      <trkpt lat="45.68609" lon="6.03252">
        <ele>1338.4000244141</ele>
        <time>2014-02-08T11:39:43.000Z</time>
      </trkpt>
      <trkpt lat="45.68591" lon="6.03253">
        <ele>1338.8000488281</ele>
        <time>2014-02-08T11:39:48.000Z</time>
      </trkpt>
      <trkpt lat="45.6858" lon="6.03252">
        <ele>1338.8000488281</ele>
        <time>2014-02-08T11:39:51.000Z</time>
      </trkpt>
      <trkpt lat="45.6856" lon="6.03252">
        <ele>1337.4000244141</ele>
        <time>2014-02-08T11:39:56.000Z</time>
      </trkpt>
      <trkpt lat="45.68546" lon="6.03252">
        <ele>1336.4000244141</ele>
        <time>2014-02-08T11:39:59.000Z</time>
      </trkpt>
      <trkpt lat="45.68531" lon="6.03252">
        <ele>1335.1999511719</ele>
        <time>2014-02-08T11:40:02.000Z</time>
      </trkpt>
      <trkpt lat="45.68518" lon="6.03251">
        <ele>1334.4000244141</ele>
        <time>2014-02-08T11:40:05.000Z</time>
      </trkpt>
      <trkpt lat="45.68494" lon="6.03252">
        <ele>1333.1999511719</ele>
        <time>2014-02-08T11:40:11.000Z</time>
      </trkpt>
      <trkpt lat="45.68474" lon="6.03253">
        <ele>1334</ele>
        <time>2014-02-08T11:40:16.000Z</time>
      </trkpt>
      <trkpt lat="45.68461" lon="6.03266">
        <ele>1334</ele>
        <time>2014-02-08T11:40:20.000Z</time>
      </trkpt>
      <trkpt lat="45.68448" lon="6.03291">
        <ele>1333</ele>
        <time>2014-02-08T11:40:25.000Z</time>
      </trkpt>
      <trkpt lat="45.68442" lon="6.033">
        <ele>1332.5999755859</ele>
        <time>2014-02-08T11:40:27.000Z</time>
      </trkpt>
      <trkpt lat="45.68418" lon="6.03313">
        <ele>1330.8000488281</ele>
        <time>2014-02-08T11:40:33.000Z</time>
      </trkpt>
      <trkpt lat="45.684" lon="6.03314">
        <ele>1329.5999755859</ele>
        <time>2014-02-08T11:40:37.000Z</time>
      </trkpt>
      <trkpt lat="45.68385" lon="6.03313">
        <ele>1328.5999755859</ele>
        <time>2014-02-08T11:40:40.000Z</time>
      </trkpt>
      <trkpt lat="45.68369" lon="6.03311">
        <ele>1327.8000488281</ele>
        <time>2014-02-08T11:40:43.000Z</time>
      </trkpt>
      <trkpt lat="45.68347" lon="6.03305">
        <ele>1327</ele>
        <time>2014-02-08T11:40:47.000Z</time>
      </trkpt>
      <trkpt lat="45.68324" lon="6.03292">
        <ele>1325.8000488281</ele>
        <time>2014-02-08T11:40:52.000Z</time>
      </trkpt>
      <trkpt lat="45.68317" lon="6.03282">
        <ele>1325.4000244141</ele>
        <time>2014-02-08T11:40:54.000Z</time>
      </trkpt>
      <trkpt lat="45.68302" lon="6.03258">
        <ele>1325</ele>
        <time>2014-02-08T11:40:59.000Z</time>
      </trkpt>
      <trkpt lat="45.68289" lon="6.0323">
        <ele>1324.5999755859</ele>
        <time>2014-02-08T11:41:04.000Z</time>
      </trkpt>
      <trkpt lat="45.68279" lon="6.03196">
        <ele>1325</ele>
        <time>2014-02-08T11:41:09.000Z</time>
      </trkpt>
      <trkpt lat="45.68277" lon="6.03189">
        <ele>1325</ele>
        <time>2014-02-08T11:41:10.000Z</time>
      </trkpt>
      <trkpt lat="45.68265" lon="6.03171">
        <ele>1324.1999511719</ele>
        <time>2014-02-08T11:41:13.000Z</time>
      </trkpt>
      <trkpt lat="45.68235" lon="6.03165">
        <ele>1322.1999511719</ele>
        <time>2014-02-08T11:41:18.000Z</time>
      </trkpt>
      <trkpt lat="45.6823" lon="6.03169">
        <ele>1321.8000488281</ele>
        <time>2014-02-08T11:41:19.000Z</time>
      </trkpt>
      <trkpt lat="45.68215" lon="6.03179">
        <ele>1321</ele>
        <time>2014-02-08T11:41:22.000Z</time>
      </trkpt>
      <trkpt lat="45.68203" lon="6.03182">
        <ele>1320.5999755859</ele>
        <time>2014-02-08T11:41:24.000Z</time>
      </trkpt>
      <trkpt lat="45.68179" lon="6.03184">
        <ele>1320.1999511719</ele>
        <time>2014-02-08T11:41:28.000Z</time>
      </trkpt>
      <trkpt lat="45.68158" lon="6.0319">
        <ele>1320.5999755859</ele>
        <time>2014-02-08T11:41:31.000Z</time>
      </trkpt>
      <trkpt lat="45.68143" lon="6.03207">
        <ele>1320.4000244141</ele>
        <time>2014-02-08T11:41:35.000Z</time>
      </trkpt>
      <trkpt lat="45.68136" lon="6.03217">
        <ele>1319.8000488281</ele>
        <time>2014-02-08T11:41:37.000Z</time>
      </trkpt>
      <trkpt lat="45.68129" lon="6.03226">
        <ele>1319</ele>
        <time>2014-02-08T11:41:39.000Z</time>
      </trkpt>
      <trkpt lat="45.68115" lon="6.03237">
        <ele>1318.8000488281</ele>
        <time>2014-02-08T11:41:42.000Z</time>
      </trkpt>
      <trkpt lat="45.68104" lon="6.03243">
        <ele>1318.5999755859</ele>
        <time>2014-02-08T11:41:44.000Z</time>
      </trkpt>
      <trkpt lat="45.6808" lon="6.03265">
        <ele>1315.8000488281</ele>
        <time>2014-02-08T11:41:49.000Z</time>
      </trkpt>
      <trkpt lat="45.68073" lon="6.03276">
        <ele>1314</ele>
        <time>2014-02-08T11:41:51.000Z</time>
      </trkpt>
      <trkpt lat="45.68064" lon="6.03301">
        <ele>1309.1999511719</ele>
        <time>2014-02-08T11:41:55.000Z</time>
      </trkpt>
      <trkpt lat="45.68063" lon="6.03308">
        <ele>1308</ele>
        <time>2014-02-08T11:41:56.000Z</time>
      </trkpt>
      <trkpt lat="45.68052" lon="6.03335">
        <ele>1303.5999755859</ele>
        <time>2014-02-08T11:42:01.000Z</time>
      </trkpt>
      <trkpt lat="45.68044" lon="6.0334">
        <ele>1304</ele>
        <time>2014-02-08T11:42:03.000Z</time>
      </trkpt>
      <trkpt lat="45.68023" lon="6.0334">
        <ele>1305.8000488281</ele>
        <time>2014-02-08T11:42:08.000Z</time>
      </trkpt>
      <trkpt lat="45.6801" lon="6.03332">
        <ele>1307.4000244141</ele>
        <time>2014-02-08T11:42:11.000Z</time>
      </trkpt>
      <trkpt lat="45.67999" lon="6.03322">
        <ele>1310</ele>
        <time>2014-02-08T11:42:14.000Z</time>
      </trkpt>
      <trkpt lat="45.67982" lon="6.03307">
        <ele>1313.4000244141</ele>
        <time>2014-02-08T11:42:18.000Z</time>
      </trkpt>
      <trkpt lat="45.67973" lon="6.03307">
        <ele>1313.5999755859</ele>
        <time>2014-02-08T11:42:20.000Z</time>
      </trkpt>
      <trkpt lat="45.67963" lon="6.03305">
        <ele>1314.4000244141</ele>
        <time>2014-02-08T11:42:22.000Z</time>
      </trkpt>
      <trkpt lat="45.67948" lon="6.03305">
        <ele>1315</ele>
        <time>2014-02-08T11:42:26.000Z</time>
      </trkpt>
      <trkpt lat="45.67943" lon="6.03304">
        <ele>1315.1999511719</ele>
        <time>2014-02-08T11:42:28.000Z</time>
      </trkpt>
      <trkpt lat="45.67937" lon="6.03303">
        <ele>1315.5999755859</ele>
        <time>2014-02-08T11:42:31.000Z</time>
      </trkpt>
      <trkpt lat="45.67924" lon="6.033">
        <ele>1316.4000244141</ele>
        <time>2014-02-08T11:42:35.000Z</time>
      </trkpt>
      <trkpt lat="45.6791" lon="6.03297">
        <ele>1316.5999755859</ele>
        <time>2014-02-08T11:42:39.000Z</time>
      </trkpt>
      <trkpt lat="45.67893" lon="6.03296">
        <ele>1315.4000244141</ele>
        <time>2014-02-08T11:42:44.000Z</time>
      </trkpt>
      <trkpt lat="45.67877" lon="6.03293">
        <ele>1314.5999755859</ele>
        <time>2014-02-08T11:42:49.000Z</time>
      </trkpt>
      <trkpt lat="45.67867" lon="6.0329">
        <ele>1314</ele>
        <time>2014-02-08T11:42:53.000Z</time>
      </trkpt>
      <trkpt lat="45.67857" lon="6.0329">
        <ele>1313.1999511719</ele>
        <time>2014-02-08T11:42:56.000Z</time>
      </trkpt>
      <trkpt lat="45.67854" lon="6.0329">
        <ele>1313</ele>
        <time>2014-02-08T11:42:57.000Z</time>
      </trkpt>
      <trkpt lat="45.67842" lon="6.03285">
        <ele>1312.4000244141</ele>
        <time>2014-02-08T11:43:02.000Z</time>
      </trkpt>
      <trkpt lat="45.67836" lon="6.03281">
        <ele>1312.1999511719</ele>
        <time>2014-02-08T11:43:05.000Z</time>
      </trkpt>
    </trkseg>
  </trk>
</gpx>